Time,TemperatureF,DewpointF,PressureIn,WindDirection,WindDirectionDegrees,WindSpeedMPH,WindSpeedGustMPH,Humidity,HourlyPrecipIn,Conditions,Clouds,dailyrainin,SolarRadiationWatts/m^2,SoftwareType,DateUTC
2013-03-08 00:03:00,14.5,11.6,30.51,ENE,66,0.0,0.0,88,0.00,,,0.00,0,Wunderground v.1.15,2013-03-08 06:03:00,
2013-03-08 00:05:00,14.5,11.6,30.51,ENE,66,0.0,0.0,88,0.00,,,0.00,0,Wunderground v.1.15,2013-03-08 06:05:00,
2013-03-08 00:06:00,14.5,11.6,30.51,ENE,66,0.0,0.0,88,0.00,,,0.00,0,Wunderground v.1.15,2013-03-08 06:06:00,
2013-03-08 00:07:00,14.5,11.6,30.51,ENE,66,0.0,0.0,88,0.00,,,0.00,0,Wunderground v.1.15,2013-03-08 06:07:00,
2013-03-08 00:08:00,14.4,11.5,30.51,ENE,66,0.0,0.0,88,0.00,,,0.00,0,Wunderground v.1.15,2013-03-08 06:08:00,
2013-03-08 00:11:00,14.5,11.6,30.51,ENE,66,0.0,0.0,88,0.00,,,0.00,0,Wunderground v.1.15,2013-03-08 06:11:00,
2013-03-08 00:13:00,14.4,11.5,30.51,ENE,66,0.0,0.0,88,0.00,,,0.00,0,Wunderground v.1.15,2013-03-08 06:13:00,
2013-03-08 00:16:00,14.3,11.7,30.51,ENE,66,0.0,0.0,89,0.00,,,0.00,0,Wunderground v.1.15,2013-03-08 06:16:00,
2013-03-08 00:17:00,14.3,11.4,30.51,ENE,66,0.0,0.0,88,0.00,,,0.00,0,Wunderground v.1.15,2013-03-08 06:17:00,
2013-03-08 00:19:00,14.3,11.7,30.51,ENE,66,0.0,0.0,89,0.00,,,0.00,0,Wunderground v.1.15,2013-03-08 06:19:00,
2013-03-08 00:21:00,14.4,11.8,30.51,ENE,66,0.0,0.0,89,0.00,,,0.00,0,Wunderground v.1.15,2013-03-08 06:21:00,
2013-03-08 00:25:00,14.4,11.8,30.51,ENE,66,0.0,0.0,89,0.00,,,0.00,0,Wunderground v.1.15,2013-03-08 06:25:00,
2013-03-08 00:26:00,14.4,11.8,30.51,ENE,66,0.0,0.0,89,0.00,,,0.00,0,Wunderground v.1.15,2013-03-08 06:26:00,
2013-03-08 00:27:00,14.3,11.7,30.51,ENE,66,0.0,0.0,89,0.00,,,0.00,0,Wunderground v.1.15,2013-03-08 06:27:00,
2013-03-08 00:29:00,14.2,11.6,30.51,ENE,66,0.0,0.0,89,0.00,,,0.00,0,Wunderground v.1.15,2013-03-08 06:29:00,
2013-03-08 00:32:00,14.1,11.5,30.51,ENE,66,0.0,0.0,89,0.00,,,0.00,0,Wunderground v.1.15,2013-03-08 06:32:00,
2013-03-08 00:33:00,14.1,11.5,30.51,ENE,66,0.0,0.0,89,0.00,,,0.00,0,Wunderground v.1.15,2013-03-08 06:33:00,
2013-03-08 00:34:00,14.1,11.5,30.51,ENE,66,0.0,0.0,89,0.00,,,0.00,0,Wunderground v.1.15,2013-03-08 06:34:00,
2013-03-08 00:39:00,13.8,11.2,30.51,ENE,66,0.0,0.0,89,0.00,,,0.00,0,Wunderground v.1.15,2013-03-08 06:39:00,
2013-03-08 00:42:00,13.7,11.1,30.51,ENE,66,0.0,0.0,89,0.00,,,0.00,0,Wunderground v.1.15,2013-03-08 06:42:00,
2013-03-08 00:43:00,13.6,11.0,30.51,ENE,66,0.0,0.0,89,0.00,,,0.00,0,Wunderground v.1.15,2013-03-08 06:43:00,
2013-03-08 00:48:00,13.6,11.0,30.52,ENE,66,0.0,0.0,89,0.00,,,0.00,0,Wunderground v.1.15,2013-03-08 06:48:00,
2013-03-08 00:50:00,13.4,10.5,30.52,ENE,66,0.0,0.0,88,0.00,,,0.00,0,Wunderground v.1.15,2013-03-08 06:50:00,
2013-03-08 00:51:00,13.2,10.3,30.52,ENE,66,0.0,0.0,88,0.00,,,0.00,0,Wunderground v.1.15,2013-03-08 06:51:00,
2013-03-08 00:54:00,13.2,10.6,30.51,ENE,66,0.0,1.0,89,0.00,,,0.00,0,Wunderground v.1.15,2013-03-08 06:54:00,
2013-03-08 00:57:00,13.3,10.7,30.51,ENE,66,0.0,1.0,89,0.00,,,0.00,0,Wunderground v.1.15,2013-03-08 06:57:00,
2013-03-08 00:58:00,13.3,10.7,30.51,ENE,66,0.0,1.0,89,0.00,,,0.00,0,Wunderground v.1.15,2013-03-08 06:58:00,
2013-03-08 00:59:00,13.4,10.8,30.51,ENE,66,0.0,1.0,89,0.00,,,0.00,0,Wunderground v.1.15,2013-03-08 06:59:00,
2013-03-08 01:03:00,13.6,11.0,30.51,ENE,66,0.0,0.0,89,0.00,,,0.00,0,Wunderground v.1.15,2013-03-08 07:03:00,
2013-03-08 01:04:00,13.6,11.0,30.51,ENE,66,0.0,0.0,89,0.00,,,0.00,0,Wunderground v.1.15,2013-03-08 07:04:00,
2013-03-08 01:05:00,13.5,10.9,30.51,ENE,66,0.0,0.0,89,0.00,,,0.00,0,Wunderground v.1.15,2013-03-08 07:05:00,
2013-03-08 01:06:00,13.4,10.8,30.51,ENE,66,0.0,0.0,89,0.00,,,0.00,0,Wunderground v.1.15,2013-03-08 07:06:00,
2013-03-08 01:11:00,13.2,10.6,30.52,ENE,66,0.0,0.0,89,0.00,,,0.00,0,Wunderground v.1.15,2013-03-08 07:11:00,
2013-03-08 01:14:00,13.2,10.6,30.52,ENE,66,0.0,0.0,89,0.00,,,0.00,0,Wunderground v.1.15,2013-03-08 07:14:00,
2013-03-08 01:15:00,13.2,10.6,30.52,ENE,66,0.0,0.0,89,0.00,,,0.00,0,Wunderground v.1.15,2013-03-08 07:15:00,
2013-03-08 01:19:00,12.9,10.3,30.52,ENE,66,0.0,0.0,89,0.00,,,0.00,0,Wunderground v.1.15,2013-03-08 07:19:00,
2013-03-08 01:20:00,12.9,10.3,30.52,ENE,66,0.0,0.0,89,0.00,,,0.00,0,Wunderground v.1.15,2013-03-08 07:20:00,
2013-03-08 01:21:00,12.9,10.3,30.53,ENE,66,0.0,0.0,89,0.00,,,0.00,0,Wunderground v.1.15,2013-03-08 07:21:00,
2013-03-08 01:24:00,12.8,10.2,30.53,ENE,66,0.0,0.0,89,0.00,,,0.00,0,Wunderground v.1.15,2013-03-08 07:24:00,
2013-03-08 01:27:00,12.8,10.2,30.53,ENE,66,0.0,0.0,89,0.00,,,0.00,0,Wunderground v.1.15,2013-03-08 07:27:00,
2013-03-08 01:28:00,12.8,10.2,30.53,ENE,66,0.0,0.0,89,0.00,,,0.00,0,Wunderground v.1.15,2013-03-08 07:28:00,
2013-03-08 01:30:00,12.7,10.1,30.53,ENE,66,0.0,0.0,89,0.00,,,0.00,0,Wunderground v.1.15,2013-03-08 07:30:00,
2013-03-08 01:33:00,12.4,9.8,30.53,ENE,66,0.0,0.0,89,0.00,,,0.00,0,Wunderground v.1.15,2013-03-08 07:33:00,
2013-03-08 01:35:00,12.3,9.7,30.53,ENE,66,0.0,0.0,89,0.00,,,0.00,0,Wunderground v.1.15,2013-03-08 07:35:00,
2013-03-08 01:36:00,12.3,9.7,30.53,ENE,66,0.0,0.0,89,0.00,,,0.00,0,Wunderground v.1.15,2013-03-08 07:36:00,
2013-03-08 01:37:00,12.3,9.7,30.53,ENE,66,0.0,0.0,89,0.00,,,0.00,0,Wunderground v.1.15,2013-03-08 07:37:00,
2013-03-08 01:40:00,12.2,9.6,30.53,ENE,66,0.0,0.0,89,0.00,,,0.00,0,Wunderground v.1.15,2013-03-08 07:40:00,
2013-03-08 01:41:00,12.2,9.6,30.53,ENE,66,0.0,0.0,89,0.00,,,0.00,0,Wunderground v.1.15,2013-03-08 07:41:00,
2013-03-08 01:43:00,12.1,9.5,30.53,ENE,66,0.0,0.0,89,0.00,,,0.00,0,Wunderground v.1.15,2013-03-08 07:43:00,
2013-03-08 01:45:00,12.1,9.5,30.53,ENE,66,0.0,0.0,89,0.00,,,0.00,0,Wunderground v.1.15,2013-03-08 07:45:00,
2013-03-08 01:48:00,12.3,9.7,30.53,ENE,66,0.0,0.0,89,0.00,,,0.00,0,Wunderground v.1.15,2013-03-08 07:48:00,
2013-03-08 01:49:00,12.3,9.9,30.53,ENE,66,0.0,0.0,90,0.00,,,0.00,0,Wunderground v.1.15,2013-03-08 07:49:00,
2013-03-08 01:51:00,12.3,9.7,30.53,ENE,66,0.0,0.0,89,0.00,,,0.00,0,Wunderground v.1.15,2013-03-08 07:51:00,
2013-03-08 01:53:00,12.5,10.1,30.53,ENE,66,0.0,0.0,90,0.00,,,0.00,0,Wunderground v.1.15,2013-03-08 07:53:00,
2013-03-08 01:54:00,12.4,10.0,30.53,ENE,66,0.0,0.0,90,0.00,,,0.00,0,Wunderground v.1.15,2013-03-08 07:54:00,
2013-03-08 01:56:00,12.4,9.8,30.53,ENE,66,0.0,0.0,89,0.00,,,0.00,0,Wunderground v.1.15,2013-03-08 07:56:00,
2013-03-08 01:58:00,12.3,9.7,30.54,ENE,66,0.0,0.0,89,0.00,,,0.00,0,Wunderground v.1.15,2013-03-08 07:58:00,
2013-03-08 02:00:00,12.2,9.6,30.54,ENE,66,0.0,0.0,89,0.00,,,0.00,0,Wunderground v.1.15,2013-03-08 08:00:00,
2013-03-08 02:01:00,12.2,9.6,30.54,ENE,66,0.0,0.0,89,0.00,,,0.00,0,Wunderground v.1.15,2013-03-08 08:01:00,
2013-03-08 02:03:00,12.1,9.5,30.54,ENE,66,0.0,0.0,89,0.00,,,0.00,0,Wunderground v.1.15,2013-03-08 08:03:00,
2013-03-08 02:05:00,12.1,9.7,30.54,ENE,66,0.0,0.0,90,0.00,,,0.00,0,Wunderground v.1.15,2013-03-08 08:05:00,
2013-03-08 02:06:00,12.1,9.5,30.54,ENE,66,0.0,0.0,89,0.00,,,0.00,0,Wunderground v.1.15,2013-03-08 08:06:00,
2013-03-08 02:08:00,12.1,9.5,30.54,ENE,66,0.0,0.0,89,0.00,,,0.00,0,Wunderground v.1.15,2013-03-08 08:08:00,
2013-03-08 02:10:00,12.1,9.5,30.54,ENE,66,0.0,0.0,89,0.00,,,0.00,0,Wunderground v.1.15,2013-03-08 08:10:00,
2013-03-08 02:12:00,12.2,9.8,30.54,ENE,66,0.0,0.0,90,0.00,,,0.00,0,Wunderground v.1.15,2013-03-08 08:12:00,
2013-03-08 02:16:00,12.3,9.9,30.54,ENE,66,0.0,0.0,90,0.00,,,0.00,0,Wunderground v.1.15,2013-03-08 08:16:00,
2013-03-08 02:17:00,12.3,9.9,30.54,ENE,66,0.0,0.0,90,0.00,,,0.00,0,Wunderground v.1.15,2013-03-08 08:17:00,
2013-03-08 02:18:00,12.2,9.8,30.54,ENE,66,0.0,0.0,90,0.00,,,0.00,0,Wunderground v.1.15,2013-03-08 08:18:00,
2013-03-08 02:23:00,12.1,9.5,30.54,ENE,66,0.0,0.0,89,0.00,,,0.00,0,Wunderground v.1.15,2013-03-08 08:23:00,
2013-03-08 02:24:00,12.0,9.4,30.54,ENE,66,0.0,0.0,89,0.00,,,0.00,0,Wunderground v.1.15,2013-03-08 08:24:00,
2013-03-08 02:25:00,11.9,9.3,30.54,ENE,66,0.0,0.0,89,0.00,,,0.00,0,Wunderground v.1.15,2013-03-08 08:25:00,
2013-03-08 02:29:00,12.0,9.6,30.54,ENE,66,0.0,0.0,90,0.00,,,0.00,0,Wunderground v.1.15,2013-03-08 08:29:00,
2013-03-08 02:30:00,11.9,9.5,30.54,ENE,66,0.0,0.0,90,0.00,,,0.00,0,Wunderground v.1.15,2013-03-08 08:30:00,
2013-03-08 02:31:00,11.9,9.3,30.54,ENE,66,0.0,0.0,89,0.00,,,0.00,0,Wunderground v.1.15,2013-03-08 08:31:00,
2013-03-08 02:33:00,11.8,9.2,30.54,ENE,66,0.0,0.0,89,0.00,,,0.00,0,Wunderground v.1.15,2013-03-08 08:33:00,
2013-03-08 02:35:00,11.7,9.3,30.54,ENE,66,0.0,0.0,90,0.00,,,0.00,0,Wunderground v.1.15,2013-03-08 08:35:00,
2013-03-08 02:40:00,11.5,9.1,30.54,ENE,66,0.0,0.0,90,0.00,,,0.00,0,Wunderground v.1.15,2013-03-08 08:40:00,
2013-03-08 02:41:00,11.5,9.1,30.54,ENE,66,0.0,0.0,90,0.00,,,0.00,0,Wunderground v.1.15,2013-03-08 08:41:00,
2013-03-08 02:45:00,11.3,8.7,30.53,ENE,66,0.0,0.0,89,0.00,,,0.00,0,Wunderground v.1.15,2013-03-08 08:45:00,
2013-03-08 02:46:00,11.2,8.6,30.53,ENE,66,0.0,0.0,89,0.00,,,0.00,0,Wunderground v.1.15,2013-03-08 08:46:00,
2013-03-08 02:47:00,11.2,8.6,30.53,ENE,66,0.0,0.0,89,0.00,,,0.00,0,Wunderground v.1.15,2013-03-08 08:47:00,
2013-03-08 02:52:00,11.3,8.9,30.53,ENE,66,0.0,0.0,90,0.00,,,0.00,0,Wunderground v.1.15,2013-03-08 08:52:00,
2013-03-08 02:53:00,11.4,9.0,30.53,ENE,66,0.0,0.0,90,0.00,,,0.00,0,Wunderground v.1.15,2013-03-08 08:53:00,
2013-03-08 02:55:00,11.4,9.0,30.53,ENE,66,0.0,0.0,90,0.00,,,0.00,0,Wunderground v.1.15,2013-03-08 08:55:00,
2013-03-08 02:58:00,11.6,9.2,30.53,ENE,66,0.0,0.0,90,0.00,,,0.00,0,Wunderground v.1.15,2013-03-08 08:58:00,
2013-03-08 02:59:00,11.6,9.2,30.53,ENE,66,0.0,0.0,90,0.00,,,0.00,0,Wunderground v.1.15,2013-03-08 08:59:00,
2013-03-08 03:01:00,11.6,9.2,30.53,ENE,66,0.0,0.0,90,0.00,,,0.00,0,Wunderground v.1.15,2013-03-08 09:01:00,
2013-03-08 03:04:00,11.3,8.7,30.53,ENE,66,0.0,0.0,89,0.00,,,0.00,0,Wunderground v.1.15,2013-03-08 09:04:00,
2013-03-08 03:06:00,11.1,8.5,30.52,ENE,66,0.0,0.0,89,0.00,,,0.00,0,Wunderground v.1.15,2013-03-08 09:06:00,
2013-03-08 03:10:00,10.8,8.2,30.52,ENE,66,0.0,0.0,89,0.00,,,0.00,0,Wunderground v.1.15,2013-03-08 09:10:00,
2013-03-08 03:11:00,10.8,8.2,30.52,ENE,66,0.0,0.0,89,0.00,,,0.00,0,Wunderground v.1.15,2013-03-08 09:11:00,
2013-03-08 03:14:00,10.7,8.1,30.52,ENE,66,0.0,1.0,89,0.00,,,0.00,0,Wunderground v.1.15,2013-03-08 09:14:00,
2013-03-08 03:16:00,10.7,8.1,30.52,ENE,66,0.0,1.0,89,0.00,,,0.00,0,Wunderground v.1.15,2013-03-08 09:16:00,
2013-03-08 03:18:00,10.7,8.1,30.51,ENE,66,0.0,1.0,89,0.00,,,0.00,0,Wunderground v.1.15,2013-03-08 09:18:00,
2013-03-08 03:20:00,10.7,8.1,30.51,ENE,66,0.0,0.0,89,0.00,,,0.00,0,Wunderground v.1.15,2013-03-08 09:20:00,
2013-03-08 03:21:00,10.7,8.3,30.51,ENE,66,0.0,0.0,90,0.00,,,0.00,0,Wunderground v.1.15,2013-03-08 09:21:00,
2013-03-08 03:24:00,10.7,8.1,30.51,ENE,66,0.0,0.0,89,0.00,,,0.00,0,Wunderground v.1.15,2013-03-08 09:24:00,
2013-03-08 03:25:00,10.8,8.2,30.51,ENE,66,0.0,0.0,89,0.00,,,0.00,0,Wunderground v.1.15,2013-03-08 09:25:00,
2013-03-08 03:27:00,10.8,8.4,30.51,ENE,66,0.0,0.0,90,0.00,,,0.00,0,Wunderground v.1.15,2013-03-08 09:27:00,
2013-03-08 03:28:00,10.9,8.5,30.51,ENE,66,0.0,0.0,90,0.00,,,0.00,0,Wunderground v.1.15,2013-03-08 09:28:00,
2013-03-08 03:30:00,10.9,8.5,30.51,ENE,66,0.0,0.0,90,0.00,,,0.00,0,Wunderground v.1.15,2013-03-08 09:30:00,
2013-03-08 03:32:00,10.8,8.2,30.51,ENE,66,0.0,0.0,89,0.00,,,0.00,0,Wunderground v.1.15,2013-03-08 09:32:00,
2013-03-08 03:33:00,10.8,8.2,30.51,ENE,66,0.0,0.0,89,0.00,,,0.00,0,Wunderground v.1.15,2013-03-08 09:33:00,
2013-03-08 03:36:00,10.7,8.1,30.51,ENE,66,0.0,0.0,89,0.00,,,0.00,0,Wunderground v.1.15,2013-03-08 09:36:00,
2013-03-08 03:37:00,10.7,8.1,30.51,ENE,66,0.0,0.0,89,0.00,,,0.00,0,Wunderground v.1.15,2013-03-08 09:37:00,
2013-03-08 03:40:00,10.5,7.9,30.51,ENE,66,0.0,0.0,89,0.00,,,0.00,0,Wunderground v.1.15,2013-03-08 09:40:00,
2013-03-08 03:42:00,10.4,7.8,30.51,ENE,66,0.0,0.0,89,0.00,,,0.00,0,Wunderground v.1.15,2013-03-08 09:42:00,
2013-03-08 03:43:00,10.3,7.7,30.51,ENE,66,0.0,0.0,89,0.00,,,0.00,0,Wunderground v.1.15,2013-03-08 09:43:00,
2013-03-08 03:44:00,10.3,7.7,30.51,ENE,66,0.0,0.0,89,0.00,,,0.00,0,Wunderground v.1.15,2013-03-08 09:44:00,
2013-03-08 03:49:00,10.1,7.5,30.52,ENE,66,0.0,1.0,89,0.00,,,0.00,0,Wunderground v.1.15,2013-03-08 09:49:00,
2013-03-08 03:50:00,10.1,7.5,30.52,ENE,66,0.0,0.0,89,0.00,,,0.00,0,Wunderground v.1.15,2013-03-08 09:50:00,
2013-03-08 03:51:00,10.1,7.5,30.52,ENE,66,0.0,0.0,89,0.00,,,0.00,0,Wunderground v.1.15,2013-03-08 09:51:00,
2013-03-08 03:53:00,10.1,7.5,30.52,ENE,66,0.0,0.0,89,0.00,,,0.00,0,Wunderground v.1.15,2013-03-08 09:53:00,
2013-03-08 03:56:00,10.2,7.9,30.52,ENE,66,0.0,0.0,90,0.00,,,0.00,0,Wunderground v.1.15,2013-03-08 09:56:00,
2013-03-08 03:57:00,10.2,7.9,30.52,ENE,66,0.0,0.0,90,0.00,,,0.00,0,Wunderground v.1.15,2013-03-08 09:57:00,
2013-03-08 03:58:00,10.1,7.5,30.51,ENE,66,0.0,0.0,89,0.00,,,0.00,0,Wunderground v.1.15,2013-03-08 09:58:00,
2013-03-08 03:59:00,10.1,7.5,30.52,ENE,66,0.0,0.0,89,0.00,,,0.00,0,Wunderground v.1.15,2013-03-08 09:59:00,
2013-03-08 04:05:00,9.6,7.0,30.51,ENE,66,0.0,0.0,89,0.00,,,0.00,0,Wunderground v.1.15,2013-03-08 10:05:00,
2013-03-08 04:06:00,9.7,7.1,30.51,ENE,66,0.0,0.0,89,0.00,,,0.00,0,Wunderground v.1.15,2013-03-08 10:06:00,
2013-03-08 04:07:00,9.7,7.1,30.51,ENE,66,0.0,0.0,89,0.00,,,0.00,0,Wunderground v.1.15,2013-03-08 10:07:00,
2013-03-08 04:10:00,9.6,7.0,30.51,ENE,66,0.0,0.0,89,0.00,,,0.00,0,Wunderground v.1.15,2013-03-08 10:10:00,
2013-03-08 04:12:00,9.6,7.0,30.51,ENE,66,0.0,0.0,89,0.00,,,0.00,0,Wunderground v.1.15,2013-03-08 10:12:00,
2013-03-08 04:14:00,9.5,6.9,30.51,ENE,66,0.0,0.0,89,0.00,,,0.00,0,Wunderground v.1.15,2013-03-08 10:14:00,
2013-03-08 04:16:00,9.6,7.0,30.51,ENE,66,0.0,0.0,89,0.00,,,0.00,0,Wunderground v.1.15,2013-03-08 10:16:00,
2013-03-08 04:17:00,9.5,6.9,30.51,ENE,66,0.0,0.0,89,0.00,,,0.00,0,Wunderground v.1.15,2013-03-08 10:17:00,
2013-03-08 04:19:00,9.6,7.0,30.51,ENE,66,0.0,0.0,89,0.00,,,0.00,0,Wunderground v.1.15,2013-03-08 10:19:00,
2013-03-08 04:23:00,9.8,7.2,30.51,ENE,66,0.0,0.0,89,0.00,,,0.00,0,Wunderground v.1.15,2013-03-08 10:23:00,
2013-03-08 04:24:00,9.8,7.2,30.51,ENE,66,0.0,0.0,89,0.00,,,0.00,0,Wunderground v.1.15,2013-03-08 10:24:00,
2013-03-08 04:25:00,9.9,7.3,30.51,ENE,66,0.0,0.0,89,0.00,,,0.00,0,Wunderground v.1.15,2013-03-08 10:25:00,
2013-03-08 04:29:00,9.8,7.2,30.51,ENE,66,0.0,0.0,89,0.00,,,0.00,0,Wunderground v.1.15,2013-03-08 10:29:00,
2013-03-08 04:31:00,9.6,7.0,30.51,ENE,66,0.0,0.0,89,0.00,,,0.00,0,Wunderground v.1.15,2013-03-08 10:31:00,
2013-03-08 04:33:00,9.5,6.9,30.51,ENE,66,0.0,0.0,89,0.00,,,0.00,0,Wunderground v.1.15,2013-03-08 10:33:00,
2013-03-08 04:37:00,9.5,6.9,30.50,ENE,66,0.0,2.0,89,0.00,,,0.00,0,Wunderground v.1.15,2013-03-08 10:37:00,
2013-03-08 04:38:00,9.5,6.9,30.50,ENE,66,0.0,2.0,89,0.00,,,0.00,0,Wunderground v.1.15,2013-03-08 10:38:00,
2013-03-08 04:41:00,9.7,7.1,30.50,ENE,66,0.0,1.0,89,0.00,,,0.00,0,Wunderground v.1.15,2013-03-08 10:41:00,
2013-03-08 04:44:00,9.8,7.2,30.50,ENE,66,0.0,1.0,89,0.00,,,0.00,0,Wunderground v.1.15,2013-03-08 10:44:00,
2013-03-08 04:45:00,9.9,7.3,30.50,ENE,66,0.0,1.0,89,0.00,,,0.00,0,Wunderground v.1.15,2013-03-08 10:45:00,
2013-03-08 04:47:00,9.9,7.6,30.51,ENE,66,0.0,1.0,90,0.00,,,0.00,0,Wunderground v.1.15,2013-03-08 10:47:00,
2013-03-08 04:49:00,9.9,7.3,30.50,ENE,66,0.0,1.0,89,0.00,,,0.00,0,Wunderground v.1.15,2013-03-08 10:49:00,
2013-03-08 04:53:00,9.5,6.9,30.50,ENE,66,0.0,0.0,89,0.00,,,0.00,0,Wunderground v.1.15,2013-03-08 10:53:00,
2013-03-08 04:55:00,9.4,6.8,30.51,ENE,66,0.0,0.0,89,0.00,,,0.00,0,Wunderground v.1.15,2013-03-08 10:55:00,
2013-03-08 04:56:00,9.2,6.6,30.51,ENE,66,0.0,0.0,89,0.00,,,0.00,0,Wunderground v.1.15,2013-03-08 10:56:00,
2013-03-08 04:59:00,9.1,6.5,30.51,ENE,66,0.0,0.0,89,0.00,,,0.00,0,Wunderground v.1.15,2013-03-08 10:59:00,
2013-03-08 05:01:00,9.1,6.5,30.51,ENE,66,0.0,0.0,89,0.00,,,0.00,0,Wunderground v.1.15,2013-03-08 11:01:00,
2013-03-08 05:02:00,9.1,6.5,30.51,ENE,66,0.0,0.0,89,0.00,,,0.00,0,Wunderground v.1.15,2013-03-08 11:02:00,
2013-03-08 05:07:00,9.2,6.6,30.51,ENE,66,0.0,0.0,89,0.00,,,0.00,0,Wunderground v.1.15,2013-03-08 11:07:00,
2013-03-08 05:08:00,9.2,6.6,30.51,ENE,66,0.0,0.0,89,0.00,,,0.00,0,Wunderground v.1.15,2013-03-08 11:08:00,
2013-03-08 05:09:00,9.2,6.6,30.51,ENE,66,0.0,0.0,89,0.00,,,0.00,0,Wunderground v.1.15,2013-03-08 11:09:00,
2013-03-08 05:10:00,9.2,6.6,30.51,ENE,66,0.0,0.0,89,0.00,,,0.00,0,Wunderground v.1.15,2013-03-08 11:10:00,
2013-03-08 05:13:00,9.2,6.6,30.51,ENE,66,0.0,0.0,89,0.00,,,0.00,0,Wunderground v.1.15,2013-03-08 11:13:00,
2013-03-08 05:14:00,9.2,6.6,30.51,ENE,66,0.0,0.0,89,0.00,,,0.00,0,Wunderground v.1.15,2013-03-08 11:14:00,
2013-03-08 05:16:00,9.2,6.6,30.51,ENE,66,0.0,0.0,89,0.00,,,0.00,0,Wunderground v.1.15,2013-03-08 11:16:00,
2013-03-08 05:18:00,9.1,6.5,30.51,ENE,66,0.0,0.0,89,0.00,,,0.00,0,Wunderground v.1.15,2013-03-08 11:18:00,
2013-03-08 05:19:00,9.1,6.5,30.51,ENE,66,0.0,0.0,89,0.00,,,0.00,0,Wunderground v.1.15,2013-03-08 11:19:00,
2013-03-08 05:22:00,9.0,6.4,30.51,ENE,66,0.0,0.0,89,0.00,,,0.00,0,Wunderground v.1.15,2013-03-08 11:22:00,
2013-03-08 05:26:00,8.8,6.2,30.51,ENE,66,0.0,0.0,89,0.00,,,0.00,0,Wunderground v.1.15,2013-03-08 11:26:00,
2013-03-08 05:27:00,8.8,6.2,30.51,ENE,66,0.0,0.0,89,0.00,,,0.00,0,Wunderground v.1.15,2013-03-08 11:27:00,
2013-03-08 05:28:00,8.8,6.2,30.51,ENE,66,0.0,0.0,89,0.00,,,0.00,0,Wunderground v.1.15,2013-03-08 11:28:00,
2013-03-08 05:33:00,8.7,6.1,30.51,ENE,66,0.0,0.0,89,0.00,,,0.00,0,Wunderground v.1.15,2013-03-08 11:33:00,
2013-03-08 05:35:00,8.7,6.1,30.52,ENE,66,0.0,0.0,89,0.00,,,0.00,0,Wunderground v.1.15,2013-03-08 11:35:00,
2013-03-08 05:37:00,8.6,5.8,30.51,ENE,66,0.0,0.0,88,0.00,,,0.00,0,Wunderground v.1.15,2013-03-08 11:37:00,
2013-03-08 05:38:00,8.6,6.0,30.51,ENE,66,0.0,0.0,89,0.00,,,0.00,0,Wunderground v.1.15,2013-03-08 11:38:00,
2013-03-08 05:43:00,8.4,5.8,30.52,ENE,66,0.0,0.0,89,0.00,,,0.00,0,Wunderground v.1.15,2013-03-08 11:43:00,
2013-03-08 05:44:00,8.4,5.8,30.52,ENE,66,0.0,0.0,89,0.00,,,0.00,0,Wunderground v.1.15,2013-03-08 11:44:00,
2013-03-08 05:45:00,8.4,5.8,30.52,ENE,66,0.0,0.0,89,0.00,,,0.00,0,Wunderground v.1.15,2013-03-08 11:45:00,
2013-03-08 05:49:00,8.4,5.8,30.52,ENE,66,0.0,0.0,89,0.00,,,0.00,0,Wunderground v.1.15,2013-03-08 11:49:00,
2013-03-08 05:50:00,8.5,5.9,30.52,ENE,66,0.0,0.0,89,0.00,,,0.00,0,Wunderground v.1.15,2013-03-08 11:50:00,
2013-03-08 05:52:00,8.5,5.9,30.52,ENE,66,0.0,1.0,89,0.00,,,0.00,0,Wunderground v.1.15,2013-03-08 11:52:00,
2013-03-08 05:53:00,8.5,5.9,30.52,ENE,66,0.0,1.0,89,0.00,,,0.00,0,Wunderground v.1.15,2013-03-08 11:53:00,
2013-03-08 05:57:00,8.5,5.9,30.52,ENE,66,0.0,1.0,89,0.00,,,0.00,0,Wunderground v.1.15,2013-03-08 11:57:00,
2013-03-08 06:01:00,8.4,5.8,30.52,ENE,66,0.0,0.0,89,0.00,,,0.00,0,Wunderground v.1.15,2013-03-08 12:01:00,
2013-03-08 06:03:00,8.4,5.8,30.52,ENE,66,0.0,0.0,89,0.00,,,0.00,0,Wunderground v.1.15,2013-03-08 12:03:00,
2013-03-08 06:08:00,8.3,5.7,30.52,ENE,66,0.0,0.0,89,0.00,,,0.00,0,Wunderground v.1.15,2013-03-08 12:08:00,
2013-03-08 06:11:00,8.2,5.4,30.52,ENE,66,0.0,0.0,88,0.00,,,0.00,0,Wunderground v.1.15,2013-03-08 12:11:00,
2013-03-08 06:15:00,8.1,5.5,30.52,ENE,66,0.0,0.0,89,0.00,,,0.00,0,Wunderground v.1.15,2013-03-08 12:15:00,
2013-03-08 06:18:00,8.1,5.5,30.53,ENE,66,0.0,0.0,89,0.00,,,0.00,0,Wunderground v.1.15,2013-03-08 12:18:00,
2013-03-08 06:19:00,8.1,5.5,30.53,ENE,66,0.0,0.0,89,0.00,,,0.00,0,Wunderground v.1.15,2013-03-08 12:19:00,
2013-03-08 06:24:00,8.2,5.6,30.53,ENE,66,0.0,0.0,89,0.00,,,0.00,0,Wunderground v.1.15,2013-03-08 12:24:00,
2013-03-08 06:25:00,8.2,5.6,30.53,ENE,66,0.0,0.0,89,0.00,,,0.00,0,Wunderground v.1.15,2013-03-08 12:25:00,
2013-03-08 06:26:00,8.1,5.5,30.53,ENE,66,0.0,0.0,89,0.00,,,0.00,0,Wunderground v.1.15,2013-03-08 12:26:00,
2013-03-08 06:27:00,8.1,5.5,30.53,ENE,66,0.0,0.0,89,0.00,,,0.00,5,Wunderground v.1.15,2013-03-08 12:27:00,
2013-03-08 06:31:00,7.9,5.1,30.53,ENE,66,0.0,0.0,88,0.00,,,0.00,7,Wunderground v.1.15,2013-03-08 12:31:00,
2013-03-08 06:34:00,7.6,4.8,30.53,ENE,66,0.0,0.0,88,0.00,,,0.00,11,Wunderground v.1.15,2013-03-08 12:34:00,
2013-03-08 06:37:00,7.9,5.3,30.53,ENE,66,0.0,0.0,89,0.00,,,0.00,12,Wunderground v.1.15,2013-03-08 12:37:00,
2013-03-08 06:38:00,7.9,5.3,30.53,ENE,66,0.0,0.0,89,0.00,,,0.00,12,Wunderground v.1.15,2013-03-08 12:38:00,
2013-03-08 06:41:00,8.2,5.6,30.53,ENE,66,0.0,0.0,89,0.00,,,0.00,16,Wunderground v.1.15,2013-03-08 12:41:00,
2013-03-08 06:44:00,8.2,5.6,30.53,ENE,66,0.0,0.0,89,0.00,,,0.00,18,Wunderground v.1.15,2013-03-08 12:44:00,
2013-03-08 06:47:00,8.1,5.5,30.53,ENE,66,0.0,0.0,89,0.00,,,0.00,21,Wunderground v.1.15,2013-03-08 12:47:00,
2013-03-08 06:50:00,8.1,5.5,30.53,ENE,66,0.0,0.0,89,0.00,,,0.00,25,Wunderground v.1.15,2013-03-08 12:50:00,
2013-03-08 06:52:00,8.0,5.4,30.53,ENE,66,0.0,0.0,89,0.00,,,0.00,32,Wunderground v.1.15,2013-03-08 12:52:00,
2013-03-08 06:53:00,8.0,5.4,30.53,ENE,66,0.0,0.0,89,0.00,,,0.00,33,Wunderground v.1.15,2013-03-08 12:53:00,
2013-03-08 06:55:00,8.0,5.4,30.53,ENE,66,0.0,0.0,89,0.00,,,0.00,37,Wunderground v.1.15,2013-03-08 12:55:00,
2013-03-08 06:56:00,8.1,5.5,30.53,ENE,66,0.0,0.0,89,0.00,,,0.00,39,Wunderground v.1.15,2013-03-08 12:56:00,
2013-03-08 06:59:00,8.3,5.7,30.53,ENE,66,0.0,0.0,89,0.00,,,0.00,46,Wunderground v.1.15,2013-03-08 12:59:00,
2013-03-08 07:01:00,8.5,5.9,30.53,ENE,66,0.0,0.0,89,0.00,,,0.00,49,Wunderground v.1.15,2013-03-08 13:01:00,
2013-03-08 07:02:00,8.6,6.0,30.53,ENE,66,0.0,0.0,89,0.00,,,0.00,51,Wunderground v.1.15,2013-03-08 13:02:00,
2013-03-08 07:07:00,8.9,6.3,30.53,ENE,66,0.0,0.0,89,0.00,,,0.00,65,Wunderground v.1.15,2013-03-08 13:07:00,
2013-03-08 07:08:00,9.0,6.4,30.53,ENE,66,0.0,0.0,89,0.00,,,0.00,67,Wunderground v.1.15,2013-03-08 13:08:00,
2013-03-08 07:09:00,9.0,6.4,30.52,ENE,66,0.0,0.0,89,0.00,,,0.00,69,Wunderground v.1.15,2013-03-08 13:09:00,
2013-03-08 07:11:00,9.1,6.5,30.52,ENE,66,0.0,0.0,89,0.00,,,0.00,76,Wunderground v.1.15,2013-03-08 13:11:00,
2013-03-08 07:12:00,9.2,6.6,30.52,ENE,66,0.0,0.0,89,0.00,,,0.00,77,Wunderground v.1.15,2013-03-08 13:12:00,
2013-03-08 07:13:00,9.2,6.6,30.52,ENE,66,0.0,0.0,89,0.00,,,0.00,81,Wunderground v.1.15,2013-03-08 13:13:00,
2013-03-08 07:16:00,9.4,6.8,30.52,ENE,66,0.0,0.0,89,0.00,,,0.00,90,Wunderground v.1.15,2013-03-08 13:16:00,
2013-03-08 07:17:00,9.4,6.8,30.52,ENE,66,0.0,0.0,89,0.00,,,0.00,95,Wunderground v.1.15,2013-03-08 13:17:00,
2013-03-08 07:18:00,9.5,6.9,30.52,ENE,66,0.0,0.0,89,0.00,,,0.00,97,Wunderground v.1.15,2013-03-08 13:18:00,
2013-03-08 07:19:00,9.6,7.0,30.52,ENE,66,0.0,0.0,89,0.00,,,0.00,98,Wunderground v.1.15,2013-03-08 13:19:00,
2013-03-08 07:23:00,9.8,7.2,30.52,ENE,66,0.0,0.0,89,0.00,,,0.00,113,Wunderground v.1.15,2013-03-08 13:23:00,
2013-03-08 07:26:00,9.8,7.2,30.52,ENE,66,0.0,0.0,89,0.00,,,0.00,121,Wunderground v.1.15,2013-03-08 13:26:00,
2013-03-08 07:27:00,9.8,7.2,30.52,ENE,66,0.0,0.0,89,0.00,,,0.00,127,Wunderground v.1.15,2013-03-08 13:27:00,
2013-03-08 07:28:00,9.9,7.3,30.52,ENE,66,0.0,0.0,89,0.00,,,0.00,130,Wunderground v.1.15,2013-03-08 13:28:00,
2013-03-08 07:31:00,10.0,7.4,30.52,ENE,66,0.0,0.0,89,0.00,,,0.00,141,Wunderground v.1.15,2013-03-08 13:31:00,
2013-03-08 07:34:00,10.1,7.3,30.52,ENE,66,0.0,0.0,88,0.00,,,0.00,153,Wunderground v.1.15,2013-03-08 13:34:00,
2013-03-08 07:35:00,10.3,7.7,30.52,ENE,66,0.0,0.0,89,0.00,,,0.00,153,Wunderground v.1.15,2013-03-08 13:35:00,
2013-03-08 07:37:00,10.7,8.1,30.52,ENE,66,0.0,0.0,89,0.00,,,0.00,162,Wunderground v.1.15,2013-03-08 13:37:00,
2013-03-08 07:39:00,10.8,8.2,30.52,ENE,66,0.0,0.0,89,0.00,,,0.00,172,Wunderground v.1.15,2013-03-08 13:39:00,
2013-03-08 07:40:00,11.0,8.4,30.52,ENE,66,0.0,0.0,89,0.00,,,0.00,172,Wunderground v.1.15,2013-03-08 13:40:00,
2013-03-08 07:43:00,11.5,8.9,30.52,ENE,66,0.0,0.0,89,0.00,,,0.00,192,Wunderground v.1.15,2013-03-08 13:43:00,
2013-03-08 07:46:00,11.7,8.8,30.52,ENE,66,0.0,0.0,88,0.00,,,0.00,200,Wunderground v.1.15,2013-03-08 13:46:00,
2013-03-08 07:50:00,12.3,9.4,30.52,ENE,66,0.0,1.0,88,0.00,,,0.00,220,Wunderground v.1.15,2013-03-08 13:50:00,
2013-03-08 07:51:00,12.5,9.6,30.52,ENE,66,0.0,1.0,88,0.00,,,0.00,223,Wunderground v.1.15,2013-03-08 13:51:00,
2013-03-08 07:52:00,12.7,9.8,30.52,ENE,66,0.0,1.0,88,0.00,,,0.00,223,Wunderground v.1.15,2013-03-08 13:52:00,
2013-03-08 07:55:00,13.1,10.2,30.52,ENE,66,0.0,1.0,88,0.00,,,0.00,234,Wunderground v.1.15,2013-03-08 13:55:00,
2013-03-08 07:58:00,13.7,10.5,30.52,ENE,66,0.0,1.0,87,0.00,,,0.00,246,Wunderground v.1.15,2013-03-08 13:58:00,
2013-03-08 08:00:00,14.1,10.9,30.52,ENE,66,0.0,0.0,87,0.00,,,0.00,250,Wunderground v.1.15,2013-03-08 14:00:00,
2013-03-08 08:03:00,14.6,11.2,30.52,ENE,66,0.0,0.0,86,0.00,,,0.00,260,Wunderground v.1.15,2013-03-08 14:03:00,
2013-03-08 08:04:00,14.7,11.3,30.52,ENE,66,0.0,0.0,86,0.00,,,0.00,262,Wunderground v.1.15,2013-03-08 14:04:00,
2013-03-08 08:09:00,15.6,11.9,30.53,ENE,66,0.0,1.0,85,0.00,,,0.00,272,Wunderground v.1.15,2013-03-08 14:09:00,
2013-03-08 08:10:00,15.7,12.0,30.53,ENE,66,0.0,1.0,85,0.00,,,0.00,274,Wunderground v.1.15,2013-03-08 14:10:00,
2013-03-08 08:14:00,16.4,12.4,30.52,ENE,66,1.0,1.0,84,0.00,,,0.00,279,Wunderground v.1.15,2013-03-08 14:14:00,
2013-03-08 08:15:00,16.4,12.4,30.52,ENE,66,1.0,1.0,84,0.00,,,0.00,287,Wunderground v.1.15,2013-03-08 14:15:00,
2013-03-08 08:16:00,16.6,12.6,30.52,ENE,66,1.0,1.0,84,0.00,,,0.00,287,Wunderground v.1.15,2013-03-08 14:16:00,
2013-03-08 08:20:00,17.5,13.8,30.52,ENE,66,1.0,1.0,85,0.00,,,0.00,301,Wunderground v.1.15,2013-03-08 14:20:00,
2013-03-08 08:22:00,18.5,14.7,30.51,ENE,66,0.0,1.0,85,0.00,,,0.00,306,Wunderground v.1.15,2013-03-08 14:22:00,
2013-03-08 08:24:00,19.2,15.4,30.51,ENE,66,0.0,1.0,85,0.00,,,0.00,294,Wunderground v.1.15,2013-03-08 14:24:00,
2013-03-08 08:25:00,19.2,15.4,30.51,ENE,66,0.0,1.0,85,0.00,,,0.00,313,Wunderground v.1.15,2013-03-08 14:25:00,
2013-03-08 08:29:00,20.3,16.2,30.51,ENE,66,0.0,1.0,84,0.00,,,0.00,327,Wunderground v.1.15,2013-03-08 14:29:00,
2013-03-08 08:31:00,20.8,16.5,30.51,ENE,66,0.0,0.0,83,0.00,,,0.00,330,Wunderground v.1.15,2013-03-08 14:31:00,
2013-03-08 08:32:00,20.8,16.5,30.52,ENE,66,0.0,0.0,83,0.00,,,0.00,334,Wunderground v.1.15,2013-03-08 14:32:00,
2013-03-08 08:34:00,20.8,16.5,30.51,ENE,66,0.0,0.0,83,0.00,,,0.00,339,Wunderground v.1.15,2013-03-08 14:34:00,
2013-03-08 08:35:00,20.8,16.2,30.51,ENE,66,0.0,0.0,82,0.00,,,0.00,343,Wunderground v.1.15,2013-03-08 14:35:00,
2013-03-08 08:39:00,22.4,18.0,30.51,ENE,66,0.0,0.0,83,0.00,,,0.00,355,Wunderground v.1.15,2013-03-08 14:39:00,
2013-03-08 08:40:00,22.6,17.9,30.51,ENE,66,0.0,0.0,82,0.00,,,0.00,353,Wunderground v.1.15,2013-03-08 14:40:00,
2013-03-08 08:41:00,23.1,18.7,30.51,SSE,151,0.0,2.0,83,0.00,,,0.00,360,Wunderground v.1.15,2013-03-08 14:41:00,
2013-03-08 08:44:00,23.6,18.9,30.51,SSE,151,0.0,2.0,82,0.00,,,0.00,378,Wunderground v.1.15,2013-03-08 14:44:00,
2013-03-08 08:45:00,23.6,18.6,30.51,SSE,151,0.0,2.0,81,0.00,,,0.00,376,Wunderground v.1.15,2013-03-08 14:45:00,
2013-03-08 08:47:00,23.6,18.6,30.51,SSE,151,0.0,2.0,81,0.00,,,0.00,388,Wunderground v.1.15,2013-03-08 14:47:00,
2013-03-08 08:50:00,24.8,20.1,30.51,South,178,0.0,0.0,82,0.00,,,0.00,380,Wunderground v.1.15,2013-03-08 14:50:00,
2013-03-08 08:55:00,25.9,20.9,30.51,South,178,1.0,5.0,81,0.00,,,0.00,360,Wunderground v.1.15,2013-03-08 14:55:00,
2013-03-08 08:56:00,26.1,21.1,30.51,South,178,1.0,5.0,81,0.00,,,0.00,387,Wunderground v.1.15,2013-03-08 14:56:00,
2013-03-08 08:57:00,26.3,21.3,30.50,South,178,1.0,5.0,81,0.00,,,0.00,387,Wunderground v.1.15,2013-03-08 14:57:00,
2013-03-08 08:58:00,26.6,21.6,30.51,South,175,1.0,5.0,81,0.00,,,0.00,369,Wunderground v.1.15,2013-03-08 14:58:00,
2013-03-08 09:03:00,27.7,22.3,30.50,SE,144,2.0,2.0,80,0.00,,,0.00,432,Wunderground v.1.15,2013-03-08 15:03:00,
2013-03-08 09:05:00,28.0,22.6,30.50,SE,142,3.0,8.0,80,0.00,,,0.00,446,Wunderground v.1.15,2013-03-08 15:05:00,
2013-03-08 09:06:00,28.2,22.8,30.50,SE,138,3.0,8.0,80,0.00,,,0.00,424,Wunderground v.1.15,2013-03-08 15:06:00,
2013-03-08 09:10:00,28.9,23.5,30.50,SE,124,4.0,4.0,80,0.00,,,0.00,410,Wunderground v.1.15,2013-03-08 15:10:00,
2013-03-08 09:12:00,29.0,23.3,30.50,SSE,153,5.0,11.0,79,0.00,,,0.00,417,Wunderground v.1.15,2013-03-08 15:12:00,
2013-03-08 09:17:00,29.3,23.3,30.50,ESE,111,6.0,11.0,78,0.00,,,0.00,410,Wunderground v.1.15,2013-03-08 15:17:00,
2013-03-08 09:19:00,29.5,23.5,30.50,SE,145,6.0,11.0,78,0.00,,,0.00,413,Wunderground v.1.15,2013-03-08 15:19:00,
2013-03-08 09:23:00,29.7,23.7,30.50,SE,127,6.0,9.0,78,0.00,,,0.00,445,Wunderground v.1.15,2013-03-08 15:23:00,
2013-03-08 09:24:00,29.7,23.4,30.50,ESE,107,6.0,9.0,77,0.00,,,0.00,445,Wunderground v.1.15,2013-03-08 15:24:00,
2013-03-08 09:28:00,29.9,23.9,30.50,SE,128,6.0,9.0,78,0.00,,,0.00,496,Wunderground v.1.15,2013-03-08 15:28:00,
2013-03-08 09:29:00,30.0,24.0,30.50,South,178,6.0,9.0,78,0.00,,,0.00,496,Wunderground v.1.15,2013-03-08 15:29:00,
2013-03-08 09:30:00,30.1,24.1,30.50,SSE,158,6.0,6.0,78,0.00,,,0.00,503,Wunderground v.1.15,2013-03-08 15:30:00,
2013-03-08 09:31:00,30.1,23.8,30.50,SE,144,6.0,6.0,77,0.00,,,0.00,483,Wunderground v.1.15,2013-03-08 15:31:00,
2013-03-08 09:34:00,30.3,24.0,30.50,ESE,107,6.0,7.0,77,0.00,,,0.00,392,Wunderground v.1.15,2013-03-08 15:34:00,
2013-03-08 09:36:00,30.3,24.0,30.50,South,171,6.0,7.0,77,0.00,,,0.00,459,Wunderground v.1.15,2013-03-08 15:36:00,
2013-03-08 09:37:00,30.3,23.6,30.50,SE,136,6.0,7.0,76,0.00,,,0.00,459,Wunderground v.1.15,2013-03-08 15:37:00,
2013-03-08 09:42:00,30.4,24.1,30.50,SE,138,7.0,10.0,77,0.00,,,0.00,401,Wunderground v.1.15,2013-03-08 15:42:00,
2013-03-08 09:46:00,30.5,23.8,30.49,South,169,8.0,12.0,76,0.00,,,0.00,427,Wunderground v.1.15,2013-03-08 15:46:00,
2013-03-08 09:48:00,30.6,23.9,30.49,ESE,112,9.0,12.0,76,0.00,,,0.00,519,Wunderground v.1.15,2013-03-08 15:48:00,
2013-03-08 09:52:00,30.8,24.1,30.50,ESE,111,8.0,9.0,76,0.00,,,0.00,499,Wunderground v.1.15,2013-03-08 15:52:00,
2013-03-08 09:53:00,30.9,24.2,30.50,SSE,163,8.0,9.0,76,0.00,,,0.00,548,Wunderground v.1.15,2013-03-08 15:53:00,
2013-03-08 09:55:00,31.0,24.3,30.50,SSE,164,8.0,13.0,76,0.00,,,0.00,446,Wunderground v.1.15,2013-03-08 15:55:00,
2013-03-08 09:58:00,31.0,24.0,30.49,SSW,203,8.0,13.0,75,0.00,,,0.00,559,Wunderground v.1.15,2013-03-08 15:58:00,
2013-03-08 10:00:00,31.2,24.2,30.49,SSE,151,8.0,8.0,75,0.00,,,0.00,573,Wunderground v.1.15,2013-03-08 16:00:00,
2013-03-08 10:02:00,31.5,24.8,30.49,SE,129,7.0,8.0,76,0.00,,,0.00,499,Wunderground v.1.15,2013-03-08 16:02:00,
2013-03-08 10:05:00,31.5,24.2,30.49,SE,129,7.0,9.0,74,0.00,,,0.00,589,Wunderground v.1.15,2013-03-08 16:05:00,
2013-03-08 10:06:00,31.5,24.2,30.49,SE,138,7.0,9.0,74,0.00,,,0.00,577,Wunderground v.1.15,2013-03-08 16:06:00,
2013-03-08 10:07:00,31.5,24.5,30.49,ESE,104,7.0,15.0,75,0.00,,,0.00,564,Wunderground v.1.15,2013-03-08 16:07:00,
2013-03-08 10:11:00,31.7,24.7,30.49,SE,132,8.0,8.0,75,0.00,,,0.00,570,Wunderground v.1.15,2013-03-08 16:11:00,
2013-03-08 10:12:00,31.8,24.8,30.49,East,83,7.0,8.0,75,0.00,,,0.00,587,Wunderground v.1.15,2013-03-08 16:12:00,
2013-03-08 10:13:00,31.9,24.9,30.49,SE,128,7.0,8.0,75,0.00,,,0.00,506,Wunderground v.1.15,2013-03-08 16:13:00,
2013-03-08 10:16:00,31.9,24.6,30.49,SE,142,7.0,13.0,74,0.00,,,0.00,598,Wunderground v.1.15,2013-03-08 16:16:00,
2013-03-08 10:17:00,31.9,24.6,30.49,SSE,161,7.0,13.0,74,0.00,,,0.00,598,Wunderground v.1.15,2013-03-08 16:17:00,
2013-03-08 10:18:00,31.9,24.6,30.49,SE,126,7.0,13.0,74,0.00,,,0.00,601,Wunderground v.1.15,2013-03-08 16:18:00,
2013-03-08 10:22:00,32.1,24.7,30.49,East,90,8.0,8.0,74,0.00,,,0.00,612,Wunderground v.1.15,2013-03-08 16:22:00,
2013-03-08 10:24:00,32.3,24.9,30.49,ESE,107,8.0,8.0,74,0.00,,,0.00,508,Wunderground v.1.15,2013-03-08 16:24:00,
2013-03-08 10:25:00,32.3,24.9,30.49,SSE,149,7.0,8.0,74,0.00,,,0.00,522,Wunderground v.1.15,2013-03-08 16:25:00,
2013-03-08 10:30:00,32.3,24.6,30.48,SSE,147,8.0,11.0,73,0.00,,,0.00,615,Wunderground v.1.15,2013-03-08 16:30:00,
2013-03-08 10:31:00,32.3,24.6,30.48,South,184,8.0,11.0,73,0.00,,,0.00,621,Wunderground v.1.15,2013-03-08 16:31:00,
2013-03-08 10:34:00,32.6,24.9,30.48,SE,146,8.0,12.0,73,0.00,,,0.00,626,Wunderground v.1.15,2013-03-08 16:34:00,
2013-03-08 10:37:00,32.8,25.1,30.48,ENE,75,8.0,12.0,73,0.00,,,0.00,629,Wunderground v.1.15,2013-03-08 16:37:00,
2013-03-08 10:38:00,32.9,25.2,30.48,SSE,163,7.0,12.0,73,0.00,,,0.00,629,Wunderground v.1.15,2013-03-08 16:38:00,
2013-03-08 10:39:00,32.9,25.2,30.48,ESE,104,7.0,12.0,73,0.00,,,0.00,633,Wunderground v.1.15,2013-03-08 16:39:00,
2013-03-08 10:41:00,33.2,25.5,30.48,South,178,6.0,9.0,73,0.00,,,0.00,640,Wunderground v.1.15,2013-03-08 16:41:00,
2013-03-08 10:43:00,33.4,25.3,30.48,SSE,160,6.0,9.0,72,0.00,,,0.00,624,Wunderground v.1.15,2013-03-08 16:43:00,
2013-03-08 10:45:00,33.3,24.9,30.48,SE,142,6.0,9.0,71,0.00,,,0.00,612,Wunderground v.1.15,2013-03-08 16:45:00,
2013-03-08 10:46:00,33.3,25.2,30.48,South,171,6.0,9.0,72,0.00,,,0.00,643,Wunderground v.1.15,2013-03-08 16:46:00,
2013-03-08 10:51:00,33.3,25.2,30.48,SSW,192,7.0,7.0,72,0.00,,,0.00,654,Wunderground v.1.15,2013-03-08 16:51:00,
2013-03-08 10:52:00,33.4,25.3,30.48,SSE,151,7.0,10.0,72,0.00,,,0.00,654,Wunderground v.1.15,2013-03-08 16:52:00,
2013-03-08 10:53:00,33.4,25.0,30.49,SSE,157,7.0,10.0,71,0.00,,,0.00,650,Wunderground v.1.15,2013-03-08 16:53:00,
2013-03-08 10:55:00,33.4,25.0,30.49,SSE,157,7.0,10.0,71,0.00,,,0.00,682,Wunderground v.1.15,2013-03-08 16:55:00,
2013-03-08 10:58:00,33.6,25.2,30.49,SSE,150,7.0,10.0,71,0.00,,,0.00,668,Wunderground v.1.15,2013-03-08 16:58:00,
2013-03-08 11:00:00,33.7,25.3,30.49,SE,143,7.0,9.0,71,0.00,,,0.00,489,Wunderground v.1.15,2013-03-08 17:00:00,
2013-03-08 11:03:00,33.6,24.9,30.49,SSE,163,8.0,12.0,70,0.00,,,0.00,668,Wunderground v.1.15,2013-03-08 17:03:00,
2013-03-08 11:04:00,33.6,24.9,30.49,SE,140,8.0,12.0,70,0.00,,,0.00,701,Wunderground v.1.15,2013-03-08 17:04:00,
2013-03-08 11:07:00,33.7,25.3,30.49,SSE,147,8.0,12.0,71,0.00,,,0.00,517,Wunderground v.1.15,2013-03-08 17:07:00,
2013-03-08 11:08:00,33.9,25.5,30.49,East,99,8.0,12.0,71,0.00,,,0.00,679,Wunderground v.1.15,2013-03-08 17:08:00,
2013-03-08 11:09:00,33.9,25.5,30.49,SE,132,8.0,12.0,71,0.00,,,0.00,679,Wunderground v.1.15,2013-03-08 17:09:00,
2013-03-08 11:12:00,34.2,25.4,30.49,ESE,122,8.0,12.0,70,0.00,,,0.00,664,Wunderground v.1.15,2013-03-08 17:12:00,
2013-03-08 11:13:00,34.1,25.3,30.49,SE,142,7.0,12.0,70,0.00,,,0.00,629,Wunderground v.1.15,2013-03-08 17:13:00,
2013-03-08 11:18:00,34.2,25.1,30.49,SSE,150,7.0,12.0,69,0.00,,,0.00,636,Wunderground v.1.15,2013-03-08 17:18:00,
2013-03-08 11:20:00,34.2,25.1,30.49,SE,136,7.0,13.0,69,0.00,,,0.00,601,Wunderground v.1.15,2013-03-08 17:20:00,
2013-03-08 11:25:00,34.4,25.3,30.49,SSE,147,8.0,13.0,69,0.00,,,0.00,671,Wunderground v.1.15,2013-03-08 17:25:00,
2013-03-08 11:26:00,34.6,25.5,30.49,SE,142,8.0,13.0,69,0.00,,,0.00,673,Wunderground v.1.15,2013-03-08 17:26:00,
2013-03-08 11:30:00,34.7,25.2,30.49,South,182,7.0,7.0,68,0.00,,,0.00,682,Wunderground v.1.15,2013-03-08 17:30:00,
2013-03-08 11:33:00,35.0,25.9,30.49,SSE,151,5.0,12.0,69,0.00,,,0.00,715,Wunderground v.1.15,2013-03-08 17:33:00,
2013-03-08 11:34:00,35.0,25.5,30.49,SE,138,5.0,12.0,68,0.00,,,0.00,715,Wunderground v.1.15,2013-03-08 17:34:00,
2013-03-08 11:36:00,34.9,25.4,30.49,ESE,120,5.0,12.0,68,0.00,,,0.00,717,Wunderground v.1.15,2013-03-08 17:36:00,
2013-03-08 11:39:00,35.0,25.5,30.49,South,169,6.0,12.0,68,0.00,,,0.00,656,Wunderground v.1.15,2013-03-08 17:39:00,
2013-03-08 11:42:00,34.9,25.4,30.49,South,171,6.0,6.0,68,0.00,,,0.00,619,Wunderground v.1.15,2013-03-08 17:42:00,
2013-03-08 11:43:00,35.1,25.6,30.49,ESE,109,6.0,6.0,68,0.00,,,0.00,621,Wunderground v.1.15,2013-03-08 17:43:00,
2013-03-08 11:45:00,35.3,25.8,30.49,SE,126,5.0,7.0,68,0.00,,,0.00,673,Wunderground v.1.15,2013-03-08 17:45:00,
2013-03-08 11:48:00,35.2,25.3,30.48,ESE,106,6.0,7.0,67,0.00,,,0.00,647,Wunderground v.1.15,2013-03-08 17:48:00,
2013-03-08 11:49:00,35.2,25.3,30.48,SE,135,6.0,8.0,67,0.00,,,0.00,679,Wunderground v.1.15,2013-03-08 17:49:00,
2013-03-08 11:50:00,35.2,25.3,30.49,SE,144,6.0,9.0,67,0.00,,,0.00,682,Wunderground v.1.15,2013-03-08 17:50:00,
2013-03-08 11:52:00,35.3,25.8,30.48,SE,124,6.0,9.0,68,0.00,,,0.00,696,Wunderground v.1.15,2013-03-08 17:52:00,
2013-03-08 11:53:00,35.3,25.8,30.48,East,100,6.0,9.0,68,0.00,,,0.00,696,Wunderground v.1.15,2013-03-08 17:53:00,
2013-03-08 11:57:00,36.0,26.5,30.48,ESE,123,5.0,9.0,68,0.00,,,0.00,661,Wunderground v.1.15,2013-03-08 17:57:00,
2013-03-08 12:01:00,36.0,26.1,30.48,East,92,4.0,12.0,67,0.00,,,0.00,694,Wunderground v.1.15,2013-03-08 18:01:00,
2013-03-08 12:03:00,35.9,26.0,30.48,East,90,5.0,12.0,67,0.00,,,0.00,694,Wunderground v.1.15,2013-03-08 18:03:00,
2013-03-08 12:06:00,36.2,26.3,30.47,ESE,115,6.0,12.0,67,0.00,,,0.00,701,Wunderground v.1.15,2013-03-08 18:06:00,
2013-03-08 12:08:00,36.3,26.4,30.47,East,96,6.0,12.0,67,0.00,,,0.00,694,Wunderground v.1.15,2013-03-08 18:08:00,
2013-03-08 12:14:00,36.8,26.9,30.47,SE,146,5.0,9.0,67,0.00,,,0.00,689,Wunderground v.1.15,2013-03-08 18:14:00,
2013-03-08 12:17:00,36.7,26.4,30.47,East,79,5.0,9.0,66,0.00,,,0.00,691,Wunderground v.1.15,2013-03-08 18:17:00,
2013-03-08 12:20:00,37.0,26.3,30.47,East,81,6.0,6.0,65,0.00,,,0.00,689,Wunderground v.1.15,2013-03-08 18:20:00,
2013-03-08 12:21:00,37.0,26.3,30.47,SE,136,6.0,6.0,65,0.00,,,0.00,691,Wunderground v.1.15,2013-03-08 18:21:00,
2013-03-08 12:23:00,37.1,26.4,30.47,SE,141,6.0,6.0,65,0.00,,,0.00,691,Wunderground v.1.15,2013-03-08 18:23:00,
2013-03-08 12:26:00,37.6,26.5,30.47,East,98,6.0,8.0,64,0.00,,,0.00,691,Wunderground v.1.15,2013-03-08 18:26:00,
2013-03-08 12:28:00,37.5,26.8,30.47,ESE,119,6.0,8.0,65,0.00,,,0.00,693,Wunderground v.1.15,2013-03-08 18:28:00,
2013-03-08 12:29:00,37.4,26.7,30.47,ENE,61,5.0,8.0,65,0.00,,,0.00,693,Wunderground v.1.15,2013-03-08 18:29:00,
2013-03-08 12:30:00,37.4,26.7,30.47,ESE,123,5.0,5.0,65,0.00,,,0.00,694,Wunderground v.1.15,2013-03-08 18:30:00,
2013-03-08 12:33:00,37.5,26.4,30.46,SE,142,5.0,7.0,64,0.00,,,0.00,708,Wunderground v.1.15,2013-03-08 18:33:00,
2013-03-08 12:34:00,37.6,26.9,30.46,ESE,115,6.0,9.0,65,0.00,,,0.00,712,Wunderground v.1.15,2013-03-08 18:34:00,
2013-03-08 12:39:00,38.1,27.0,30.46,ESE,102,6.0,9.0,64,0.00,,,0.00,691,Wunderground v.1.15,2013-03-08 18:39:00,
2013-03-08 12:41:00,38.4,26.9,30.46,SE,141,5.0,7.0,63,0.00,,,0.00,714,Wunderground v.1.15,2013-03-08 18:41:00,
2013-03-08 12:43:00,38.4,26.9,30.46,SE,144,5.0,10.0,63,0.00,,,0.00,698,Wunderground v.1.15,2013-03-08 18:43:00,
2013-03-08 12:47:00,38.3,26.4,30.45,SSE,149,5.0,10.0,62,0.00,,,0.00,668,Wunderground v.1.15,2013-03-08 18:47:00,
2013-03-08 12:48:00,38.4,26.5,30.45,SSE,148,5.0,10.0,62,0.00,,,0.00,671,Wunderground v.1.15,2013-03-08 18:48:00,
2013-03-08 12:49:00,38.4,26.5,30.45,South,183,6.0,10.0,62,0.00,,,0.00,619,Wunderground v.1.15,2013-03-08 18:49:00,
2013-03-08 12:51:00,38.4,26.9,30.45,SE,124,6.0,6.0,63,0.00,,,0.00,673,Wunderground v.1.15,2013-03-08 18:51:00,
2013-03-08 12:54:00,38.5,27.4,30.45,ESE,112,5.0,8.0,64,0.00,,,0.00,647,Wunderground v.1.15,2013-03-08 18:54:00,
2013-03-08 12:55:00,38.6,27.1,30.45,ESE,112,5.0,8.0,63,0.00,,,0.00,673,Wunderground v.1.15,2013-03-08 18:55:00,
2013-03-08 12:56:00,38.6,26.7,30.45,ESE,110,5.0,8.0,62,0.00,,,0.00,671,Wunderground v.1.15,2013-03-08 18:56:00,
2013-03-08 13:00:00,38.6,26.7,30.45,SE,140,4.0,12.0,62,0.00,,,0.00,668,Wunderground v.1.15,2013-03-08 19:00:00,
2013-03-08 13:01:00,38.6,26.3,30.45,SSW,210,5.0,12.0,61,0.00,,,0.00,664,Wunderground v.1.15,2013-03-08 19:01:00,
2013-03-08 13:02:00,38.6,26.7,30.44,South,169,5.0,12.0,62,0.00,,,0.00,666,Wunderground v.1.15,2013-03-08 19:02:00,
2013-03-08 13:03:00,38.7,26.8,30.44,SSE,152,6.0,12.0,62,0.00,,,0.00,666,Wunderground v.1.15,2013-03-08 19:03:00,
2013-03-08 13:07:00,38.8,26.5,30.45,SSE,152,7.0,12.0,61,0.00,,,0.00,659,Wunderground v.1.15,2013-03-08 19:07:00,
2013-03-08 13:08:00,38.7,26.0,30.45,SE,126,7.0,12.0,60,0.00,,,0.00,659,Wunderground v.1.15,2013-03-08 19:08:00,
2013-03-08 13:09:00,38.6,26.3,30.45,SSE,149,8.0,13.0,61,0.00,,,0.00,656,Wunderground v.1.15,2013-03-08 19:09:00,
2013-03-08 13:14:00,38.4,26.1,30.45,ESE,108,8.0,17.0,61,0.00,,,0.00,654,Wunderground v.1.15,2013-03-08 19:14:00,
2013-03-08 13:15:00,38.5,26.6,30.44,SSE,161,8.0,17.0,62,0.00,,,0.00,654,Wunderground v.1.15,2013-03-08 19:15:00,
2013-03-08 13:19:00,39.1,26.8,30.44,SSE,150,6.0,17.0,61,0.00,,,0.00,649,Wunderground v.1.15,2013-03-08 19:19:00,
2013-03-08 13:21:00,39.2,27.3,30.44,SSE,152,6.0,7.0,62,0.00,,,0.00,647,Wunderground v.1.15,2013-03-08 19:21:00,
2013-03-08 13:24:00,39.1,26.8,30.43,SE,128,5.0,7.0,61,0.00,,,0.00,643,Wunderground v.1.15,2013-03-08 19:24:00,
2013-03-08 13:27:00,39.1,26.4,30.43,SSE,154,6.0,8.0,60,0.00,,,0.00,638,Wunderground v.1.15,2013-03-08 19:27:00,
2013-03-08 13:30:00,39.2,26.5,30.43,South,182,7.0,7.0,60,0.00,,,0.00,635,Wunderground v.1.15,2013-03-08 19:30:00,
2013-03-08 13:33:00,39.3,26.6,30.43,ESE,111,7.0,12.0,60,0.00,,,0.00,631,Wunderground v.1.15,2013-03-08 19:33:00,
2013-03-08 13:35:00,39.4,26.7,30.43,ESE,117,7.0,12.0,60,0.00,,,0.00,629,Wunderground v.1.15,2013-03-08 19:35:00,
2013-03-08 13:37:00,39.5,26.8,30.43,SW,223,7.0,12.0,60,0.00,,,0.00,626,Wunderground v.1.15,2013-03-08 19:37:00,
2013-03-08 13:39:00,39.7,27.3,30.43,SSE,165,6.0,12.0,61,0.00,,,0.00,622,Wunderground v.1.15,2013-03-08 19:39:00,
2013-03-08 13:41:00,39.7,26.9,30.43,South,177,6.0,6.0,60,0.00,,,0.00,617,Wunderground v.1.15,2013-03-08 19:41:00,
2013-03-08 13:42:00,39.7,27.3,30.43,South,174,6.0,6.0,61,0.00,,,0.00,608,Wunderground v.1.15,2013-03-08 19:42:00,
2013-03-08 13:43:00,39.8,27.0,30.43,ESE,121,5.0,7.0,60,0.00,,,0.00,610,Wunderground v.1.15,2013-03-08 19:43:00,
2013-03-08 13:47:00,39.8,27.0,30.43,SSE,167,6.0,11.0,60,0.00,,,0.00,617,Wunderground v.1.15,2013-03-08 19:47:00,
2013-03-08 13:48:00,39.8,27.0,30.43,South,180,6.0,11.0,60,0.00,,,0.00,613,Wunderground v.1.15,2013-03-08 19:48:00,
2013-03-08 13:50:00,39.6,26.4,30.43,SE,135,7.0,7.0,59,0.00,,,0.00,612,Wunderground v.1.15,2013-03-08 19:50:00,
2013-03-08 13:51:00,39.6,26.4,30.43,SSE,154,7.0,7.0,59,0.00,,,0.00,608,Wunderground v.1.15,2013-03-08 19:51:00,
2013-03-08 13:52:00,39.6,26.4,30.43,SSE,157,7.0,7.0,59,0.00,,,0.00,603,Wunderground v.1.15,2013-03-08 19:52:00,
2013-03-08 13:55:00,39.7,26.9,30.43,SE,131,8.0,8.0,60,0.00,,,0.00,599,Wunderground v.1.15,2013-03-08 19:55:00,
2013-03-08 14:00:00,39.8,26.6,30.43,SE,143,7.0,9.0,59,0.00,,,0.00,592,Wunderground v.1.15,2013-03-08 20:00:00,
2013-03-08 14:01:00,39.7,26.5,30.43,SSE,158,7.0,11.0,59,0.00,,,0.00,594,Wunderground v.1.15,2013-03-08 20:01:00,
2013-03-08 14:04:00,39.8,26.6,30.43,SSE,159,7.0,11.0,59,0.00,,,0.00,585,Wunderground v.1.15,2013-03-08 20:04:00,
2013-03-08 14:05:00,39.8,26.6,30.43,ESE,116,7.0,11.0,59,0.00,,,0.00,584,Wunderground v.1.15,2013-03-08 20:05:00,
2013-03-08 14:07:00,39.8,26.6,30.43,South,181,7.0,11.0,59,0.00,,,0.00,578,Wunderground v.1.15,2013-03-08 20:07:00,
2013-03-08 14:09:00,39.8,26.6,30.43,SE,133,7.0,12.0,59,0.00,,,0.00,573,Wunderground v.1.15,2013-03-08 20:09:00,
2013-03-08 14:12:00,39.7,26.9,30.43,ESE,119,7.0,7.0,60,0.00,,,0.00,563,Wunderground v.1.15,2013-03-08 20:12:00,
2013-03-08 14:13:00,39.7,26.5,30.43,SE,143,7.0,7.0,59,0.00,,,0.00,559,Wunderground v.1.15,2013-03-08 20:13:00,
2013-03-08 14:16:00,39.6,26.4,30.43,South,190,7.0,8.0,59,0.00,,,0.00,547,Wunderground v.1.15,2013-03-08 20:16:00,
2013-03-08 14:19:00,39.7,26.5,30.43,ESE,121,8.0,12.0,59,0.00,,,0.00,536,Wunderground v.1.15,2013-03-08 20:19:00,
2013-03-08 14:21:00,39.7,26.5,30.42,SSE,163,8.0,9.0,59,0.00,,,0.00,540,Wunderground v.1.15,2013-03-08 20:21:00,
2013-03-08 14:23:00,39.9,27.1,30.42,ESE,113,8.0,9.0,60,0.00,,,0.00,554,Wunderground v.1.15,2013-03-08 20:23:00,
2013-03-08 14:24:00,39.9,26.7,30.42,ESE,107,8.0,12.0,59,0.00,,,0.00,550,Wunderground v.1.15,2013-03-08 20:24:00,
2013-03-08 14:28:00,40.0,26.8,30.42,East,98,7.0,12.0,59,0.00,,,0.00,534,Wunderground v.1.15,2013-03-08 20:28:00,
2013-03-08 14:29:00,40.0,26.8,30.42,SSE,165,7.0,12.0,59,0.00,,,0.00,534,Wunderground v.1.15,2013-03-08 20:29:00,
2013-03-08 14:34:00,40.6,27.8,30.42,South,180,5.0,8.0,60,0.00,,,0.00,526,Wunderground v.1.15,2013-03-08 20:34:00,
2013-03-08 14:35:00,40.7,27.9,30.42,South,188,5.0,8.0,60,0.00,,,0.00,504,Wunderground v.1.15,2013-03-08 20:35:00,
2013-03-08 14:39:00,40.5,27.3,30.41,SE,136,5.0,8.0,59,0.00,,,0.00,504,Wunderground v.1.15,2013-03-08 20:39:00,
2013-03-08 14:41:00,40.6,27.4,30.41,SSE,148,6.0,13.0,59,0.00,,,0.00,503,Wunderground v.1.15,2013-03-08 20:41:00,
2013-03-08 14:42:00,40.5,26.9,30.41,South,173,6.0,13.0,58,0.00,,,0.00,499,Wunderground v.1.15,2013-03-08 20:42:00,
2013-03-08 14:43:00,40.5,27.3,30.41,South,184,6.0,13.0,59,0.00,,,0.00,489,Wunderground v.1.15,2013-03-08 20:43:00,
2013-03-08 14:49:00,40.0,26.8,30.41,SSW,196,7.0,13.0,59,0.00,,,0.00,480,Wunderground v.1.15,2013-03-08 20:49:00,
2013-03-08 14:52:00,40.0,26.8,30.42,South,173,7.0,11.0,59,0.00,,,0.00,468,Wunderground v.1.15,2013-03-08 20:52:00,
2013-03-08 14:53:00,40.1,27.3,30.42,SE,144,7.0,11.0,60,0.00,,,0.00,471,Wunderground v.1.15,2013-03-08 20:53:00,
2013-03-08 14:55:00,40.1,26.9,30.42,SE,143,7.0,11.0,59,0.00,,,0.00,478,Wunderground v.1.15,2013-03-08 20:55:00,
2013-03-08 14:58:00,40.5,27.7,30.42,SSW,193,5.0,11.0,60,0.00,,,0.00,450,Wunderground v.1.15,2013-03-08 20:58:00,
2013-03-08 15:00:00,40.6,28.2,30.42,SE,143,5.0,5.0,61,0.00,,,0.00,462,Wunderground v.1.15,2013-03-08 21:00:00,
2013-03-08 15:03:00,40.5,27.7,30.42,South,172,4.0,5.0,60,0.00,,,0.00,452,Wunderground v.1.15,2013-03-08 21:03:00,
2013-03-08 15:04:00,40.4,27.6,30.42,South,174,4.0,5.0,60,0.00,,,0.00,450,Wunderground v.1.15,2013-03-08 21:04:00,
2013-03-08 15:06:00,40.4,27.6,30.42,South,182,4.0,8.0,60,0.00,,,0.00,452,Wunderground v.1.15,2013-03-08 21:06:00,
2013-03-08 15:08:00,40.4,27.2,30.41,SSW,197,5.0,9.0,59,0.00,,,0.00,443,Wunderground v.1.15,2013-03-08 21:08:00,
2013-03-08 15:11:00,40.2,27.0,30.41,SE,125,5.0,6.0,59,0.00,,,0.00,438,Wunderground v.1.15,2013-03-08 21:11:00,
2013-03-08 15:13:00,40.2,27.0,30.41,ESE,118,6.0,13.0,59,0.00,,,0.00,432,Wunderground v.1.15,2013-03-08 21:13:00,
2013-03-08 15:17:00,40.3,27.1,30.41,SE,130,6.0,13.0,59,0.00,,,0.00,411,Wunderground v.1.15,2013-03-08 21:17:00,
2013-03-08 15:18:00,40.3,27.1,30.41,SE,131,6.0,13.0,59,0.00,,,0.00,406,Wunderground v.1.15,2013-03-08 21:18:00,
2013-03-08 15:19:00,40.2,27.0,30.41,SSE,158,6.0,13.0,59,0.00,,,0.00,408,Wunderground v.1.15,2013-03-08 21:19:00,
2013-03-08 15:22:00,40.1,26.9,30.41,ESE,123,7.0,8.0,59,0.00,,,0.00,381,Wunderground v.1.15,2013-03-08 21:22:00,
2013-03-08 15:23:00,40.1,27.3,30.41,SE,140,6.0,8.0,60,0.00,,,0.00,390,Wunderground v.1.15,2013-03-08 21:23:00,
2013-03-08 15:25:00,40.2,27.4,30.41,South,173,6.0,9.0,60,0.00,,,0.00,390,Wunderground v.1.15,2013-03-08 21:25:00,
2013-03-08 15:28:00,40.1,26.9,30.41,South,169,6.0,9.0,59,0.00,,,0.00,387,Wunderground v.1.15,2013-03-08 21:28:00,
2013-03-08 15:30:00,40.1,27.3,30.41,SE,144,6.0,10.0,60,0.00,,,0.00,374,Wunderground v.1.15,2013-03-08 21:30:00,
2013-03-08 15:31:00,40.1,26.9,30.41,SSE,161,6.0,10.0,59,0.00,,,0.00,376,Wunderground v.1.15,2013-03-08 21:31:00,
2013-03-08 15:34:00,40.2,27.0,30.40,South,183,7.0,10.0,59,0.00,,,0.00,369,Wunderground v.1.15,2013-03-08 21:34:00,
2013-03-08 15:35:00,40.2,27.0,30.40,SSE,148,7.0,10.0,59,0.00,,,0.00,367,Wunderground v.1.15,2013-03-08 21:35:00,
2013-03-08 15:36:00,40.2,27.0,30.40,SSE,165,7.0,10.0,59,0.00,,,0.00,371,Wunderground v.1.15,2013-03-08 21:36:00,
2013-03-08 15:38:00,40.3,27.1,30.40,SSW,192,7.0,10.0,59,0.00,,,0.00,360,Wunderground v.1.15,2013-03-08 21:38:00,
2013-03-08 15:41:00,40.3,27.1,30.40,SE,134,7.0,7.0,59,0.00,,,0.00,341,Wunderground v.1.15,2013-03-08 21:41:00,
2013-03-08 15:43:00,40.5,27.7,30.40,SE,146,6.0,7.0,60,0.00,,,0.00,315,Wunderground v.1.15,2013-03-08 21:43:00,
2013-03-08 15:48:00,40.6,27.4,30.39,SSE,157,5.0,7.0,59,0.00,,,0.00,332,Wunderground v.1.15,2013-03-08 21:48:00,
2013-03-08 15:49:00,40.6,27.4,30.40,ESE,109,4.0,7.0,59,0.00,,,0.00,332,Wunderground v.1.15,2013-03-08 21:49:00,
2013-03-08 15:54:00,40.8,27.6,30.40,SSE,148,4.0,11.0,59,0.00,,,0.00,316,Wunderground v.1.15,2013-03-08 21:54:00,
2013-03-08 15:55:00,40.8,27.6,30.40,SSE,165,4.0,11.0,59,0.00,,,0.00,315,Wunderground v.1.15,2013-03-08 21:55:00,
2013-03-08 15:58:00,40.8,27.6,30.40,SSE,155,4.0,11.0,59,0.00,,,0.00,302,Wunderground v.1.15,2013-03-08 21:58:00,
2013-03-08 16:01:00,40.8,27.6,30.40,SE,146,4.0,7.0,59,0.00,,,0.00,285,Wunderground v.1.15,2013-03-08 22:01:00,
2013-03-08 16:04:00,40.7,27.5,30.40,South,186,6.0,7.0,59,0.00,,,0.00,229,Wunderground v.1.15,2013-03-08 22:04:00,
2013-03-08 16:05:00,40.6,27.4,30.40,SE,137,5.0,7.0,59,0.00,,,0.00,246,Wunderground v.1.15,2013-03-08 22:05:00,
2013-03-08 16:06:00,40.6,27.4,30.40,South,176,5.0,7.0,59,0.00,,,0.00,246,Wunderground v.1.15,2013-03-08 22:06:00,
2013-03-08 16:11:00,40.4,27.6,30.40,SE,136,6.0,7.0,60,0.00,,,0.00,218,Wunderground v.1.15,2013-03-08 22:11:00,
2013-03-08 16:12:00,40.4,27.6,30.40,SSW,192,6.0,7.0,60,0.00,,,0.00,179,Wunderground v.1.15,2013-03-08 22:12:00,
2013-03-08 16:13:00,40.4,27.6,30.40,South,182,6.0,7.0,60,0.00,,,0.00,190,Wunderground v.1.15,2013-03-08 22:13:00,
2013-03-08 16:17:00,40.3,27.5,30.40,South,184,6.0,10.0,60,0.00,,,0.00,197,Wunderground v.1.15,2013-03-08 22:17:00,
2013-03-08 16:19:00,40.3,27.5,30.40,SSE,161,5.0,10.0,60,0.00,,,0.00,197,Wunderground v.1.15,2013-03-08 22:19:00,
2013-03-08 16:20:00,40.3,27.5,30.40,South,189,5.0,5.0,60,0.00,,,0.00,197,Wunderground v.1.15,2013-03-08 22:20:00,
2013-03-08 16:21:00,40.3,27.5,30.41,South,176,5.0,5.0,60,0.00,,,0.00,195,Wunderground v.1.15,2013-03-08 22:21:00,
2013-03-08 16:25:00,40.4,27.6,30.41,SE,134,5.0,9.0,60,0.00,,,0.00,234,Wunderground v.1.15,2013-03-08 22:25:00,
2013-03-08 16:26:00,40.4,27.6,30.41,South,178,5.0,9.0,60,0.00,,,0.00,192,Wunderground v.1.15,2013-03-08 22:26:00,
2013-03-08 16:27:00,40.4,27.6,30.41,SSE,157,5.0,9.0,60,0.00,,,0.00,188,Wunderground v.1.15,2013-03-08 22:27:00,
2013-03-08 16:29:00,40.4,27.6,30.41,ESE,119,5.0,9.0,60,0.00,,,0.00,190,Wunderground v.1.15,2013-03-08 22:29:00,
2013-03-08 16:30:00,40.4,27.6,30.41,SSE,163,5.0,5.0,60,0.00,,,0.00,174,Wunderground v.1.15,2013-03-08 22:30:00,
2013-03-08 16:34:00,40.4,27.6,30.41,ESE,111,4.0,7.0,60,0.00,,,0.00,155,Wunderground v.1.15,2013-03-08 22:34:00,
2013-03-08 16:38:00,40.2,27.4,30.41,SE,125,3.0,7.0,60,0.00,,,0.00,167,Wunderground v.1.15,2013-03-08 22:38:00,
2013-03-08 16:39:00,40.2,27.4,30.41,SE,128,3.0,7.0,60,0.00,,,0.00,158,Wunderground v.1.15,2013-03-08 22:39:00,
2013-03-08 16:40:00,40.2,27.8,30.41,SE,128,3.0,3.0,61,0.00,,,0.00,158,Wunderground v.1.15,2013-03-08 22:40:00,
2013-03-08 16:43:00,40.1,27.3,30.41,SE,146,3.0,8.0,60,0.00,,,0.00,153,Wunderground v.1.15,2013-03-08 22:43:00,
2013-03-08 16:44:00,40.1,27.3,30.41,SSE,153,4.0,8.0,60,0.00,,,0.00,149,Wunderground v.1.15,2013-03-08 22:44:00,
2013-03-08 16:49:00,39.8,27.4,30.41,SE,124,3.0,8.0,61,0.00,,,0.00,139,Wunderground v.1.15,2013-03-08 22:49:00,
2013-03-08 16:50:00,39.7,27.3,30.41,SE,129,3.0,3.0,61,0.00,,,0.00,141,Wunderground v.1.15,2013-03-08 22:50:00,
2013-03-08 16:51:00,39.7,27.3,30.41,ESE,121,3.0,8.0,61,0.00,,,0.00,134,Wunderground v.1.15,2013-03-08 22:51:00,
2013-03-08 16:53:00,39.7,27.3,30.41,SSE,166,4.0,8.0,61,0.00,,,0.00,132,Wunderground v.1.15,2013-03-08 22:53:00,
2013-03-08 16:56:00,39.7,27.3,30.41,South,174,4.0,8.0,61,0.00,,,0.00,111,Wunderground v.1.15,2013-03-08 22:56:00,
2013-03-08 17:00:00,39.6,27.2,30.41,SSE,159,4.0,4.0,61,0.00,,,0.00,109,Wunderground v.1.15,2013-03-08 23:00:00,
2013-03-08 17:02:00,39.6,27.2,30.41,SE,133,4.0,6.0,61,0.00,,,0.00,93,Wunderground v.1.15,2013-03-08 23:02:00,
2013-03-08 17:03:00,39.6,27.2,30.41,ENE,62,4.0,6.0,61,0.00,,,0.00,76,Wunderground v.1.15,2013-03-08 23:03:00,
2013-03-08 17:05:00,39.5,27.2,30.41,SE,136,4.0,6.0,61,0.00,,,0.00,91,Wunderground v.1.15,2013-03-08 23:05:00,
2013-03-08 17:10:00,39.2,27.3,30.41,South,183,4.0,4.0,62,0.00,,,0.00,77,Wunderground v.1.15,2013-03-08 23:10:00,
2013-03-08 17:11:00,39.1,27.2,30.41,SSE,159,4.0,6.0,62,0.00,,,0.00,76,Wunderground v.1.15,2013-03-08 23:11:00,
2013-03-08 17:12:00,39.1,27.2,30.41,SE,138,4.0,6.0,62,0.00,,,0.00,74,Wunderground v.1.15,2013-03-08 23:12:00,
2013-03-08 17:15:00,39.0,27.1,30.41,SSE,153,4.0,6.0,62,0.00,,,0.00,49,Wunderground v.1.15,2013-03-08 23:15:00,
2013-03-08 17:16:00,39.0,27.1,30.41,East,100,4.0,6.0,62,0.00,,,0.00,47,Wunderground v.1.15,2013-03-08 23:16:00,
2013-03-08 17:17:00,39.0,27.1,30.41,East,84,4.0,6.0,62,0.00,,,0.00,46,Wunderground v.1.15,2013-03-08 23:17:00,
2013-03-08 17:18:00,38.9,27.0,30.41,SE,144,3.0,6.0,62,0.00,,,0.00,39,Wunderground v.1.15,2013-03-08 23:18:00,
2013-03-08 17:22:00,38.7,27.2,30.41,SSE,147,4.0,6.0,63,0.00,,,0.00,32,Wunderground v.1.15,2013-03-08 23:22:00,
2013-03-08 17:23:00,38.6,27.1,30.41,SE,140,4.0,6.0,63,0.00,,,0.00,28,Wunderground v.1.15,2013-03-08 23:23:00,
2013-03-08 17:24:00,38.6,27.1,30.41,East,97,4.0,6.0,63,0.00,,,0.00,28,Wunderground v.1.15,2013-03-08 23:24:00,
2013-03-08 17:28:00,38.3,26.8,30.41,SSE,149,5.0,7.0,63,0.00,,,0.00,25,Wunderground v.1.15,2013-03-08 23:28:00,
2013-03-08 17:29:00,38.3,26.8,30.41,SE,138,5.0,7.0,63,0.00,,,0.00,23,Wunderground v.1.15,2013-03-08 23:29:00,
2013-03-08 17:32:00,38.1,26.6,30.41,SE,145,4.0,5.0,63,0.00,,,0.00,19,Wunderground v.1.15,2013-03-08 23:32:00,
2013-03-08 17:34:00,38.0,26.9,30.41,SSE,153,4.0,6.0,64,0.00,,,0.00,18,Wunderground v.1.15,2013-03-08 23:34:00,
2013-03-08 17:38:00,37.9,26.8,30.40,SSE,147,4.0,7.0,64,0.00,,,0.00,14,Wunderground v.1.15,2013-03-08 23:38:00,
2013-03-08 17:40:00,37.8,26.7,30.40,SE,132,3.0,3.0,64,0.00,,,0.00,12,Wunderground v.1.15,2013-03-08 23:40:00,
2013-03-08 17:42:00,37.7,27.0,30.41,SE,132,3.0,3.0,65,0.00,,,0.00,12,Wunderground v.1.15,2013-03-08 23:42:00,
2013-03-08 17:45:00,37.6,26.9,30.41,SSE,155,3.0,4.0,65,0.00,,,0.00,11,Wunderground v.1.15,2013-03-08 23:45:00,
2013-03-08 17:48:00,37.5,26.8,30.40,ESE,123,2.0,4.0,65,0.00,,,0.00,7,Wunderground v.1.15,2013-03-08 23:48:00,
2013-03-08 17:50:00,37.4,26.7,30.41,ESE,121,1.0,1.0,65,0.00,,,0.00,7,Wunderground v.1.15,2013-03-08 23:50:00,
2013-03-08 17:51:00,37.4,26.7,30.41,ESE,121,1.0,1.0,65,0.00,,,0.00,7,Wunderground v.1.15,2013-03-08 23:51:00,
2013-03-08 17:53:00,37.3,26.6,30.40,South,169,2.0,2.0,65,0.00,,,0.00,5,Wunderground v.1.15,2013-03-08 23:53:00,
2013-03-08 17:56:00,37.2,26.9,30.40,SE,133,2.0,2.0,66,0.00,,,0.00,5,Wunderground v.1.15,2013-03-08 23:56:00,
2013-03-08 17:59:00,37.1,26.8,30.40,ESE,119,2.0,4.0,66,0.00,,,0.00,0,Wunderground v.1.15,2013-03-08 23:59:00,
2013-03-08 18:02:00,36.9,26.6,30.40,ESE,119,2.0,4.0,66,0.00,,,0.00,0,Wunderground v.1.15,2013-03-09 00:02:00,
2013-03-08 18:04:00,36.8,26.5,30.40,ESE,119,2.0,4.0,66,0.00,,,0.00,0,Wunderground v.1.15,2013-03-09 00:04:00,
2013-03-08 18:05:00,36.7,26.8,30.40,ESE,119,2.0,4.0,67,0.00,,,0.00,0,Wunderground v.1.15,2013-03-09 00:05:00,
2013-03-08 18:06:00,36.6,26.7,30.40,ESE,119,2.0,4.0,67,0.00,,,0.00,0,Wunderground v.1.15,2013-03-09 00:06:00,
2013-03-08 18:07:00,36.6,26.7,30.40,ESE,119,1.0,4.0,67,0.00,,,0.00,0,Wunderground v.1.15,2013-03-09 00:07:00,
2013-03-08 18:10:00,36.5,26.6,30.40,ESE,121,2.0,2.0,67,0.00,,,0.00,0,Wunderground v.1.15,2013-03-09 00:10:00,
2013-03-08 18:13:00,36.4,26.5,30.40,SE,146,2.0,8.0,67,0.00,,,0.00,0,Wunderground v.1.15,2013-03-09 00:13:00,
2013-03-08 18:15:00,36.4,26.5,30.40,ESE,109,3.0,8.0,67,0.00,,,0.00,0,Wunderground v.1.15,2013-03-09 00:15:00,
2013-03-08 18:19:00,36.1,26.6,30.39,SE,140,2.0,8.0,68,0.00,,,0.00,0,Wunderground v.1.15,2013-03-09 00:19:00,
2013-03-08 18:20:00,36.1,26.6,30.39,SE,140,2.0,2.0,68,0.00,,,0.00,0,Wunderground v.1.15,2013-03-09 00:20:00,
2013-03-08 18:24:00,36.0,26.5,30.39,SSE,148,2.0,2.0,68,0.00,,,0.00,0,Wunderground v.1.15,2013-03-09 00:24:00,
2013-03-08 18:25:00,36.0,26.5,30.39,SSE,148,2.0,2.0,68,0.00,,,0.00,0,Wunderground v.1.15,2013-03-09 00:25:00,
2013-03-08 18:27:00,36.0,26.5,30.39,SE,140,2.0,2.0,68,0.00,,,0.00,0,Wunderground v.1.15,2013-03-09 00:27:00,
2013-03-08 18:30:00,35.9,26.4,30.40,SE,132,2.0,2.0,68,0.00,,,0.00,0,Wunderground v.1.15,2013-03-09 00:30:00,
2013-03-08 18:32:00,35.9,26.4,30.40,SSE,160,2.0,5.0,68,0.00,,,0.00,0,Wunderground v.1.15,2013-03-09 00:32:00,
2013-03-08 18:35:00,35.9,26.4,30.40,SSE,162,3.0,5.0,68,0.00,,,0.00,0,Wunderground v.1.15,2013-03-09 00:35:00,
2013-03-08 18:37:00,35.9,26.4,30.40,South,176,3.0,7.0,68,0.00,,,0.00,0,Wunderground v.1.15,2013-03-09 00:37:00,
2013-03-08 18:38:00,35.9,26.4,30.40,South,171,4.0,7.0,68,0.00,,,0.00,0,Wunderground v.1.15,2013-03-09 00:38:00,
2013-03-08 18:40:00,35.9,26.4,30.40,SSE,156,4.0,5.0,68,0.00,,,0.00,0,Wunderground v.1.15,2013-03-09 00:40:00,
2013-03-08 18:43:00,35.9,26.4,30.40,SSE,165,4.0,5.0,68,0.00,,,0.00,0,Wunderground v.1.15,2013-03-09 00:43:00,
2013-03-08 18:44:00,35.9,26.4,30.40,SSE,147,5.0,5.0,68,0.00,,,0.00,0,Wunderground v.1.15,2013-03-09 00:44:00,
2013-03-08 18:46:00,35.9,26.4,30.40,SSE,151,4.0,5.0,68,0.00,,,0.00,0,Wunderground v.1.15,2013-03-09 00:46:00,
2013-03-08 18:51:00,35.7,26.2,30.40,SE,139,3.0,3.0,68,0.00,,,0.00,0,Wunderground v.1.15,2013-03-09 00:51:00,
2013-03-08 18:53:00,35.7,26.2,30.40,SSE,164,2.0,3.0,68,0.00,,,0.00,0,Wunderground v.1.15,2013-03-09 00:53:00,
2013-03-08 18:56:00,35.6,26.1,30.39,South,173,2.0,4.0,68,0.00,,,0.00,0,Wunderground v.1.15,2013-03-09 00:56:00,
2013-03-08 18:58:00,35.6,26.1,30.39,South,173,2.0,4.0,68,0.00,,,0.00,0,Wunderground v.1.15,2013-03-09 00:58:00,
2013-03-08 18:59:00,35.5,26.0,30.39,South,173,2.0,4.0,68,0.00,,,0.00,0,Wunderground v.1.15,2013-03-09 00:59:00,
2013-03-08 19:02:00,35.5,26.0,30.39,South,173,1.0,2.0,68,0.00,,,0.00,0,Wunderground v.1.15,2013-03-09 01:02:00,
2013-03-08 19:03:00,35.4,26.2,30.40,South,173,1.0,2.0,69,0.00,,,0.00,0,Wunderground v.1.15,2013-03-09 01:03:00,
2013-03-08 19:04:00,35.4,26.2,30.40,South,173,1.0,2.0,69,0.00,,,0.00,0,Wunderground v.1.15,2013-03-09 01:04:00,
2013-03-08 19:08:00,35.3,26.1,30.40,SSE,149,1.0,4.0,69,0.00,,,0.00,0,Wunderground v.1.15,2013-03-09 01:08:00,
2013-03-08 19:10:00,35.3,26.1,30.40,SSE,149,1.0,1.0,69,0.00,,,0.00,0,Wunderground v.1.15,2013-03-09 01:10:00,
2013-03-08 19:16:00,35.2,26.0,30.40,SE,144,1.0,4.0,69,0.00,,,0.00,0,Wunderground v.1.15,2013-03-09 01:16:00,
2013-03-08 19:18:00,35.1,25.9,30.40,SE,144,1.0,4.0,69,0.00,,,0.00,0,Wunderground v.1.15,2013-03-09 01:18:00,
2013-03-08 19:21:00,35.1,25.9,30.40,SE,140,2.0,5.0,69,0.00,,,0.00,0,Wunderground v.1.15,2013-03-09 01:21:00,
2013-03-08 19:22:00,35.0,25.9,30.40,SE,140,2.0,5.0,69,0.00,,,0.00,0,Wunderground v.1.15,2013-03-09 01:22:00,
2013-03-08 19:23:00,35.0,25.9,30.40,SE,140,2.0,5.0,69,0.00,,,0.00,0,Wunderground v.1.15,2013-03-09 01:23:00,
2013-03-08 19:26:00,35.0,26.2,30.40,SE,141,2.0,7.0,70,0.00,,,0.00,0,Wunderground v.1.15,2013-03-09 01:26:00,
2013-03-08 19:28:00,34.9,26.1,30.40,SSE,161,3.0,7.0,70,0.00,,,0.00,0,Wunderground v.1.15,2013-03-09 01:28:00,
2013-03-08 19:33:00,34.8,26.0,30.39,SE,139,2.0,5.0,70,0.00,,,0.00,0,Wunderground v.1.15,2013-03-09 01:33:00,
2013-03-08 19:35:00,34.7,25.9,30.39,SE,140,2.0,5.0,70,0.00,,,0.00,0,Wunderground v.1.15,2013-03-09 01:35:00,
2013-03-08 19:36:00,34.7,25.9,30.39,SE,140,2.0,5.0,70,0.00,,,0.00,0,Wunderground v.1.15,2013-03-09 01:36:00,
2013-03-08 19:39:00,34.6,25.8,30.39,ESE,111,1.0,5.0,70,0.00,,,0.00,0,Wunderground v.1.15,2013-03-09 01:39:00,
2013-03-08 19:41:00,34.4,26.0,30.39,ESE,111,1.0,1.0,71,0.00,,,0.00,0,Wunderground v.1.15,2013-03-09 01:41:00,
2013-03-08 19:44:00,34.3,25.9,30.39,ESE,111,1.0,1.0,71,0.00,,,0.00,0,Wunderground v.1.15,2013-03-09 01:44:00,
2013-03-08 19:46:00,34.2,25.8,30.39,ESE,111,1.0,1.0,71,0.00,,,0.00,0,Wunderground v.1.15,2013-03-09 01:46:00,
2013-03-08 19:49:00,34.1,26.0,30.39,ESE,110,0.0,4.0,72,0.00,,,0.00,0,Wunderground v.1.15,2013-03-09 01:49:00,
2013-03-08 19:52:00,33.9,25.8,30.39,ESE,110,0.0,0.0,72,0.00,,,0.00,0,Wunderground v.1.15,2013-03-09 01:52:00,
2013-03-08 19:53:00,33.9,25.8,30.39,ESE,110,0.0,0.0,72,0.00,,,0.00,0,Wunderground v.1.15,2013-03-09 01:53:00,
2013-03-08 19:55:00,33.8,25.7,30.39,ESE,110,0.0,0.0,72,0.00,,,0.00,0,Wunderground v.1.15,2013-03-09 01:55:00,
2013-03-08 19:57:00,33.8,25.7,30.39,ESE,110,0.0,0.0,72,0.00,,,0.00,0,Wunderground v.1.15,2013-03-09 01:57:00,
2013-03-08 20:02:00,33.7,25.6,30.38,ESE,110,0.0,0.0,72,0.00,,,0.00,0,Wunderground v.1.15,2013-03-09 02:02:00,
2013-03-08 20:04:00,33.7,25.6,30.38,ESE,110,0.0,0.0,72,0.00,,,0.00,0,Wunderground v.1.15,2013-03-09 02:04:00,
2013-03-08 20:06:00,33.6,25.9,30.38,ESE,110,0.0,0.0,73,0.00,,,0.00,0,Wunderground v.1.15,2013-03-09 02:06:00,
2013-03-08 20:08:00,33.6,25.9,30.38,ESE,110,0.0,0.0,73,0.00,,,0.00,0,Wunderground v.1.15,2013-03-09 02:08:00,
2013-03-08 20:09:00,33.6,25.5,30.38,ESE,110,0.0,0.0,72,0.00,,,0.00,0,Wunderground v.1.15,2013-03-09 02:09:00,
2013-03-08 20:11:00,33.6,25.5,30.38,ESE,111,0.0,2.0,72,0.00,,,0.00,0,Wunderground v.1.15,2013-03-09 02:11:00,
2013-03-08 20:15:00,33.5,25.8,30.38,ESE,111,1.0,2.0,73,0.00,,,0.00,0,Wunderground v.1.15,2013-03-09 02:15:00,
2013-03-08 20:16:00,33.4,25.7,30.38,ESE,111,1.0,2.0,73,0.00,,,0.00,0,Wunderground v.1.15,2013-03-09 02:16:00,
2013-03-08 20:18:00,33.3,25.6,30.38,ESE,111,1.0,2.0,73,0.00,,,0.00,0,Wunderground v.1.15,2013-03-09 02:18:00,
2013-03-08 20:23:00,33.2,25.5,30.37,ESE,111,1.0,1.0,73,0.00,,,0.00,0,Wunderground v.1.15,2013-03-09 02:23:00,
2013-03-08 20:24:00,33.1,25.4,30.37,ESE,111,1.0,2.0,73,0.00,,,0.00,0,Wunderground v.1.15,2013-03-09 02:24:00,
2013-03-08 20:25:00,33.1,25.4,30.37,ESE,111,1.0,2.0,73,0.00,,,0.00,0,Wunderground v.1.15,2013-03-09 02:25:00,
2013-03-08 20:26:00,33.1,25.4,30.37,ESE,111,1.0,2.0,73,0.00,,,0.00,0,Wunderground v.1.15,2013-03-09 02:26:00,
2013-03-08 20:30:00,33.0,25.6,30.37,ESE,111,0.0,1.0,74,0.00,,,0.00,0,Wunderground v.1.15,2013-03-09 02:30:00,
2013-03-08 20:31:00,33.0,25.6,30.37,ESE,116,1.0,1.0,74,0.00,,,0.00,0,Wunderground v.1.15,2013-03-09 02:31:00,
2013-03-08 20:32:00,33.0,25.6,30.37,SE,138,1.0,4.0,74,0.00,,,0.00,0,Wunderground v.1.15,2013-03-09 02:32:00,
2013-03-08 20:37:00,32.9,25.5,30.37,SSE,150,2.0,5.0,74,0.00,,,0.00,0,Wunderground v.1.15,2013-03-09 02:37:00,
2013-03-08 20:40:00,32.9,25.5,30.37,South,170,3.0,3.0,74,0.00,,,0.00,0,Wunderground v.1.15,2013-03-09 02:40:00,
2013-03-08 20:42:00,32.9,25.5,30.37,South,170,2.0,3.0,74,0.00,,,0.00,0,Wunderground v.1.15,2013-03-09 02:42:00,
2013-03-08 20:47:00,32.8,25.7,30.36,SSE,153,2.0,6.0,75,0.00,,,0.00,0,Wunderground v.1.15,2013-03-09 02:47:00,
2013-03-08 20:48:00,32.8,25.7,30.36,South,174,2.0,6.0,75,0.00,,,0.00,0,Wunderground v.1.15,2013-03-09 02:48:00,
2013-03-08 20:49:00,32.8,25.7,30.36,South,174,2.0,6.0,75,0.00,,,0.00,0,Wunderground v.1.15,2013-03-09 02:49:00,
2013-03-08 20:53:00,32.6,25.6,30.36,South,171,2.0,2.0,75,0.00,,,0.00,0,Wunderground v.1.15,2013-03-09 02:53:00,
2013-03-08 20:54:00,32.6,25.6,30.36,SSE,158,1.0,2.0,75,0.00,,,0.00,0,Wunderground v.1.15,2013-03-09 02:54:00,
2013-03-08 20:55:00,32.5,25.5,30.36,SSE,154,1.0,4.0,75,0.00,,,0.00,0,Wunderground v.1.15,2013-03-09 02:55:00,
2013-03-08 20:59:00,32.5,25.5,30.36,SE,146,2.0,4.0,75,0.00,,,0.00,0,Wunderground v.1.15,2013-03-09 02:59:00,
2013-03-08 21:00:00,32.5,25.5,30.36,SE,146,2.0,2.0,75,0.00,,,0.00,0,Wunderground v.1.15,2013-03-09 03:00:00,
2013-03-08 21:01:00,32.5,25.5,30.36,SE,146,2.0,2.0,75,0.00,,,0.00,0,Wunderground v.1.15,2013-03-09 03:01:00,
2013-03-08 21:04:00,32.5,25.5,30.36,ESE,105,2.0,4.0,75,0.00,,,0.00,0,Wunderground v.1.15,2013-03-09 03:04:00,
2013-03-08 21:06:00,32.5,25.5,30.36,ESE,113,2.0,4.0,75,0.00,,,0.00,0,Wunderground v.1.15,2013-03-09 03:06:00,
2013-03-08 21:08:00,32.4,25.4,30.35,SE,124,3.0,6.0,75,0.00,,,0.00,0,Wunderground v.1.15,2013-03-09 03:08:00,
2013-03-08 21:10:00,32.4,25.4,30.35,SE,138,3.0,6.0,75,0.00,,,0.00,0,Wunderground v.1.15,2013-03-09 03:10:00,
2013-03-08 21:12:00,32.4,25.4,30.35,East,87,3.0,6.0,75,0.00,,,0.00,0,Wunderground v.1.15,2013-03-09 03:12:00,
2013-03-08 21:13:00,32.4,25.4,30.35,ESE,119,3.0,6.0,75,0.00,,,0.00,0,Wunderground v.1.15,2013-03-09 03:13:00,
2013-03-08 21:15:00,32.4,25.7,30.35,ESE,115,3.0,6.0,76,0.00,,,0.00,0,Wunderground v.1.15,2013-03-09 03:15:00,
2013-03-08 21:19:00,32.4,25.7,30.35,SSE,150,3.0,6.0,76,0.00,,,0.00,0,Wunderground v.1.15,2013-03-09 03:19:00,
2013-03-08 21:20:00,32.4,25.7,30.35,SSE,151,3.0,3.0,76,0.00,,,0.00,0,Wunderground v.1.15,2013-03-09 03:20:00,
2013-03-08 21:21:00,32.4,25.7,30.35,SSE,151,3.0,3.0,76,0.00,,,0.00,0,Wunderground v.1.15,2013-03-09 03:21:00,
2013-03-08 21:24:00,32.4,25.7,30.35,ESE,113,3.0,5.0,76,0.00,,,0.00,0,Wunderground v.1.15,2013-03-09 03:24:00,
2013-03-08 21:26:00,32.3,25.6,30.35,ESE,115,3.0,5.0,76,0.00,,,0.00,0,Wunderground v.1.15,2013-03-09 03:26:00,
2013-03-08 21:27:00,32.3,25.6,30.35,ESE,113,3.0,5.0,76,0.00,,,0.00,0,Wunderground v.1.15,2013-03-09 03:27:00,
2013-03-08 21:28:00,32.3,25.6,30.35,ESE,113,3.0,5.0,76,0.00,,,0.00,0,Wunderground v.1.15,2013-03-09 03:28:00,
2013-03-08 21:29:00,32.3,25.6,30.35,SE,142,3.0,5.0,76,0.00,,,0.00,0,Wunderground v.1.15,2013-03-09 03:29:00,
2013-03-08 21:31:00,32.2,25.5,30.35,East,95,3.0,5.0,76,0.00,,,0.00,0,Wunderground v.1.15,2013-03-09 03:31:00,
2013-03-08 21:32:00,32.2,25.5,30.35,East,95,3.0,5.0,76,0.00,,,0.00,0,Wunderground v.1.15,2013-03-09 03:32:00,
2013-03-08 21:33:00,32.1,25.4,30.35,East,95,2.0,5.0,76,0.00,,,0.00,0,Wunderground v.1.15,2013-03-09 03:33:00,
2013-03-08 21:35:00,32.1,25.4,30.35,South,169,2.0,6.0,76,0.00,,,0.00,0,Wunderground v.1.15,2013-03-09 03:35:00,
2013-03-08 21:37:00,32.1,25.4,30.35,South,169,2.0,6.0,76,0.00,,,0.00,0,Wunderground v.1.15,2013-03-09 03:37:00,
2013-03-08 21:38:00,32.0,25.3,30.35,SE,133,2.0,6.0,76,0.00,,,0.00,0,Wunderground v.1.15,2013-03-09 03:38:00,
2013-03-08 21:40:00,32.0,25.3,30.35,East,94,2.0,2.0,76,0.00,,,0.00,0,Wunderground v.1.15,2013-03-09 03:40:00,
2013-03-08 21:44:00,31.9,25.5,30.35,ESE,113,2.0,2.0,77,0.00,,,0.00,0,Wunderground v.1.15,2013-03-09 03:44:00,
2013-03-08 21:45:00,31.9,25.5,30.35,ESE,113,2.0,2.0,77,0.00,,,0.00,0,Wunderground v.1.15,2013-03-09 03:45:00,
2013-03-08 21:46:00,31.9,25.5,30.35,ESE,106,2.0,5.0,77,0.00,,,0.00,0,Wunderground v.1.15,2013-03-09 03:46:00,
2013-03-08 21:51:00,31.8,25.4,30.35,ESE,118,2.0,5.0,77,0.00,,,0.00,0,Wunderground v.1.15,2013-03-09 03:51:00,
2013-03-08 21:52:00,31.8,25.4,30.35,East,94,3.0,5.0,77,0.00,,,0.00,0,Wunderground v.1.15,2013-03-09 03:52:00,
2013-03-08 21:53:00,31.9,25.5,30.35,SSE,153,3.0,5.0,77,0.00,,,0.00,0,Wunderground v.1.15,2013-03-09 03:53:00,
2013-03-08 21:55:00,31.9,25.5,30.35,ESE,117,4.0,6.0,77,0.00,,,0.00,0,Wunderground v.1.15,2013-03-09 03:55:00,
2013-03-08 21:59:00,31.8,25.4,30.35,SE,142,4.0,6.0,77,0.00,,,0.00,0,Wunderground v.1.15,2013-03-09 03:59:00,
2013-03-08 22:00:00,31.8,25.4,30.35,ESE,109,4.0,9.0,77,0.00,,,0.00,0,Wunderground v.1.15,2013-03-09 04:00:00,
2013-03-08 22:01:00,31.8,25.4,30.35,South,178,4.0,9.0,77,0.00,,,0.00,0,Wunderground v.1.15,2013-03-09 04:01:00,
2013-03-08 22:06:00,31.7,25.3,30.34,SE,137,4.0,9.0,77,0.00,,,0.00,0,Wunderground v.1.15,2013-03-09 04:06:00,
2013-03-08 22:07:00,31.7,25.3,30.34,ESE,113,4.0,9.0,77,0.00,,,0.00,0,Wunderground v.1.15,2013-03-09 04:07:00,
2013-03-08 22:08:00,31.6,25.2,30.34,SE,146,4.0,9.0,77,0.00,,,0.00,0,Wunderground v.1.15,2013-03-09 04:08:00,
2013-03-08 22:12:00,31.5,25.4,30.34,SE,126,3.0,3.0,78,0.00,,,0.00,0,Wunderground v.1.15,2013-03-09 04:12:00,
2013-03-08 22:13:00,31.5,25.4,30.34,SSE,154,3.0,4.0,78,0.00,,,0.00,0,Wunderground v.1.15,2013-03-09 04:13:00,
2013-03-08 22:17:00,31.5,25.4,30.34,SE,128,3.0,7.0,78,0.00,,,0.00,0,Wunderground v.1.15,2013-03-09 04:17:00,
2013-03-08 22:20:00,31.5,25.4,30.34,ESE,108,4.0,4.0,78,0.00,,,0.00,0,Wunderground v.1.15,2013-03-09 04:20:00,
2013-03-08 22:23:00,31.5,25.4,30.34,SE,141,4.0,7.0,78,0.00,,,0.00,0,Wunderground v.1.15,2013-03-09 04:23:00,
2013-03-08 22:25:00,31.5,25.4,30.34,SE,145,4.0,7.0,78,0.00,,,0.00,0,Wunderground v.1.15,2013-03-09 04:25:00,
2013-03-08 22:30:00,31.6,25.5,30.35,SSE,147,5.0,8.0,78,0.00,,,0.00,0,Wunderground v.1.15,2013-03-09 04:30:00,
2013-03-08 22:31:00,31.6,25.5,30.35,South,184,5.0,8.0,78,0.00,,,0.00,0,Wunderground v.1.15,2013-03-09 04:31:00,
2013-03-08 22:32:00,31.6,25.5,30.35,SSE,165,5.0,8.0,78,0.00,,,0.00,0,Wunderground v.1.15,2013-03-09 04:32:00,
2013-03-08 22:35:00,31.6,25.5,30.35,South,173,5.0,8.0,78,0.00,,,0.00,0,Wunderground v.1.15,2013-03-09 04:35:00,
2013-03-08 22:37:00,31.5,25.4,30.35,SSW,196,4.0,8.0,78,0.00,,,0.00,0,Wunderground v.1.15,2013-03-09 04:37:00,
2013-03-08 22:38:00,31.5,25.7,30.35,SE,134,4.0,8.0,79,0.00,,,0.00,0,Wunderground v.1.15,2013-03-09 04:38:00,
2013-03-08 22:41:00,31.4,25.6,30.34,SE,126,3.0,4.0,79,0.00,,,0.00,0,Wunderground v.1.15,2013-03-09 04:41:00,
2013-03-08 22:42:00,31.4,25.6,30.34,South,181,3.0,4.0,79,0.00,,,0.00,0,Wunderground v.1.15,2013-03-09 04:42:00,
2013-03-08 22:44:00,31.4,25.6,30.34,SSE,165,3.0,5.0,79,0.00,,,0.00,0,Wunderground v.1.15,2013-03-09 04:44:00,
2013-03-08 22:45:00,31.3,25.5,30.34,SSE,165,3.0,5.0,79,0.00,,,0.00,0,Wunderground v.1.15,2013-03-09 04:45:00,
2013-03-08 22:49:00,31.2,25.4,30.34,SSE,159,3.0,5.0,79,0.00,,,0.00,0,Wunderground v.1.15,2013-03-09 04:49:00,
2013-03-08 22:51:00,31.1,25.3,30.34,ESE,123,2.0,2.0,79,0.00,,,0.00,0,Wunderground v.1.15,2013-03-09 04:51:00,
2013-03-08 22:53:00,31.2,25.4,30.33,SE,124,2.0,2.0,79,0.00,,,0.00,0,Wunderground v.1.15,2013-03-09 04:53:00,
2013-03-08 22:54:00,31.1,25.3,30.33,SE,124,2.0,2.0,79,0.00,,,0.00,0,Wunderground v.1.15,2013-03-09 04:54:00,
2013-03-08 22:55:00,31.1,25.3,30.33,SE,124,2.0,2.0,79,0.00,,,0.00,0,Wunderground v.1.15,2013-03-09 04:55:00,
2013-03-08 22:58:00,31.1,25.7,30.33,SSE,151,1.0,2.0,80,0.00,,,0.00,0,Wunderground v.1.15,2013-03-09 04:58:00,
2013-03-08 23:00:00,31.1,25.7,30.33,SSE,151,1.0,1.0,80,0.00,,,0.00,0,Wunderground v.1.15,2013-03-09 05:00:00,
2013-03-08 23:01:00,31.1,25.7,30.33,SSE,151,1.0,2.0,80,0.00,,,0.00,0,Wunderground v.1.15,2013-03-09 05:01:00,
2013-03-08 23:02:00,31.1,25.7,30.33,SSE,150,1.0,2.0,80,0.00,,,0.00,0,Wunderground v.1.15,2013-03-09 05:02:00,
2013-03-08 23:03:00,31.1,25.7,30.33,SSE,150,1.0,2.0,80,0.00,,,0.00,0,Wunderground v.1.15,2013-03-09 05:03:00,
2013-03-08 23:06:00,31.1,25.7,30.33,SE,137,1.0,6.0,80,0.00,,,0.00,0,Wunderground v.1.15,2013-03-09 05:06:00,
2013-03-08 23:10:00,31.2,25.7,30.32,SE,130,3.0,3.0,80,0.00,,,0.00,0,Wunderground v.1.15,2013-03-09 05:10:00,
2013-03-08 23:11:00,31.2,25.7,30.32,SE,130,3.0,3.0,80,0.00,,,0.00,0,Wunderground v.1.15,2013-03-09 05:11:00,
2013-03-08 23:15:00,31.3,25.8,30.32,SE,127,4.0,6.0,80,0.00,,,0.00,0,Wunderground v.1.15,2013-03-09 05:15:00,
2013-03-08 23:16:00,31.3,25.8,30.31,East,94,4.0,6.0,80,0.00,,,0.00,0,Wunderground v.1.15,2013-03-09 05:16:00,
2013-03-08 23:17:00,31.3,25.8,30.31,East,82,3.0,6.0,80,0.00,,,0.00,0,Wunderground v.1.15,2013-03-09 05:17:00,
2013-03-08 23:23:00,31.4,25.9,30.32,South,173,4.0,5.0,80,0.00,,,0.00,0,Wunderground v.1.15,2013-03-09 05:23:00,
2013-03-08 23:26:00,31.4,25.9,30.32,SSE,167,4.0,5.0,80,0.00,,,0.00,0,Wunderground v.1.15,2013-03-09 05:26:00,
2013-03-08 23:28:00,31.5,26.0,30.32,SSE,162,5.0,7.0,80,0.00,,,0.00,0,Wunderground v.1.15,2013-03-09 05:28:00,
2013-03-08 23:29:00,31.5,26.0,30.32,SE,144,5.0,7.0,80,0.00,,,0.00,0,Wunderground v.1.15,2013-03-09 05:29:00,
2013-03-08 23:31:00,31.5,26.0,30.32,SSE,160,5.0,5.0,80,0.00,,,0.00,0,Wunderground v.1.15,2013-03-09 05:31:00,
2013-03-08 23:34:00,31.6,26.1,30.32,SE,132,4.0,6.0,80,0.00,,,0.00,0,Wunderground v.1.15,2013-03-09 05:34:00,
2013-03-08 23:36:00,31.6,26.1,30.32,SSE,164,5.0,6.0,80,0.00,,,0.00,0,Wunderground v.1.15,2013-03-09 05:36:00,
2013-03-08 23:37:00,31.6,26.1,30.32,SSE,164,4.0,6.0,80,0.00,,,0.00,0,Wunderground v.1.15,2013-03-09 05:37:00,
2013-03-08 23:40:00,31.6,26.1,30.32,SE,146,4.0,4.0,80,0.00,,,0.00,0,Wunderground v.1.15,2013-03-09 05:40:00,
2013-03-08 23:41:00,31.6,26.1,30.32,SE,144,4.0,4.0,80,0.00,,,0.00,0,Wunderground v.1.15,2013-03-09 05:41:00,
2013-03-08 23:43:00,31.6,26.1,30.32,SE,142,4.0,5.0,80,0.00,,,0.00,0,Wunderground v.1.15,2013-03-09 05:43:00,
2013-03-08 23:44:00,31.6,26.1,30.32,SSW,192,4.0,5.0,80,0.00,,,0.00,0,Wunderground v.1.15,2013-03-09 05:44:00,
2013-03-08 23:47:00,31.6,26.1,30.32,SSE,150,4.0,5.0,80,0.00,,,0.00,0,Wunderground v.1.15,2013-03-09 05:47:00,
2013-03-08 23:49:00,31.5,26.0,30.32,SE,146,3.0,7.0,80,0.00,,,0.00,0,Wunderground v.1.15,2013-03-09 05:49:00,
2013-03-08 23:50:00,31.5,26.0,30.32,ESE,119,4.0,5.0,80,0.00,,,0.00,0,Wunderground v.1.15,2013-03-09 05:50:00,
2013-03-08 23:51:00,31.5,26.0,30.32,ESE,119,4.0,5.0,80,0.00,,,0.00,0,Wunderground v.1.15,2013-03-09 05:51:00,
2013-03-08 23:54:00,31.5,26.0,30.32,SSE,152,4.0,5.0,80,0.00,,,0.00,0,Wunderground v.1.15,2013-03-09 05:54:00,
2013-03-08 23:59:00,31.5,26.0,30.31,SE,125,4.0,8.0,80,0.00,,,0.00,0,Wunderground v.1.15,2013-03-09 05:59:00,